Wetterdaten: Donnerstag, 03.12.2020
Datum Zeit Temp. Aussen Temp. o. S. Temp +5cm Feuchte Auss Luftdruck Regen Sonnenschein Regendauer Solar Windben Empfang
03.12.2020 00:00 3,7 C 2,8 C 4,5 C 99 % 1010,7 hPa 0,0 l/m 0 min 0 min 0 W/m 3,2 km/h (1 Bft) 100,00 %
03.12.2020 00:02 3,7 C 3,3 C 4,5 C 99 % 1010,7 hPa 0,0 l/m 0 min 0 min 0 W/m 0,0 km/h (0 Bft) 97,78 %
03.12.2020 00:04 3,7 C 2,8 C 4,5 C 99 % 1010,6 hPa 0,0 l/m 0 min 0 min 0 W/m 6,4 km/h (2 Bft) 93,62 %
03.12.2020 00:08 3,7 C 2,8 C 4,5 C 99 % 1010,8 hPa 0,0 l/m 0 min 0 min 0 W/m 16,1 km/h (3 Bft) 97,89 %
03.12.2020 00:10 3,7 C 3,3 C 4,5 C 99 % 1010,7 hPa 0,0 l/m 0 min 0 min 0 W/m 16,1 km/h (3 Bft) 97,87 %
03.12.2020 00:12 3,7 C 3,3 C 4,5 C 99 % 1010,6 hPa 0,0 l/m 0 min 0 min 0 W/m 0,0 km/h (0 Bft) 97,87 %
03.12.2020 00:14 3,7 C 3,3 C 4,5 C 99 % 1010,5 hPa 0,0 l/m 0 min 0 min 0 W/m 3,2 km/h (1 Bft) 97,83 %
03.12.2020 00:16 3,7 C 3,3 C 4,5 C 99 % 1010,5 hPa 0,0 l/m 0 min 0 min 0 W/m 0,0 km/h (0 Bft) 97,87 %
03.12.2020 00:18 3,7 C 3,3 C 4,5 C 99 % 1010,5 hPa 0,0 l/m 0 min 0 min 0 W/m 3,2 km/h (1 Bft) 97,87 %
03.12.2020 00:20 3,7 C 3,3 C 4,5 C 99 % 1010,5 hPa 0,0 l/m 0 min 0 min 0 W/m 12,9 km/h (3 Bft) 97,87 %
03.12.2020 00:22 3,7 C 2,8 C 4,5 C 99 % 1010,5 hPa 0,0 l/m 0 min 0 min 0 W/m 12,9 km/h (3 Bft) 97,87 %
03.12.2020 00:24 3,7 C 2,8 C 4,5 C 99 % 1010,4 hPa 0,0 l/m 0 min 0 min 0 W/m 3,2 km/h (1 Bft) 95,74 %
03.12.2020 00:26 3,7 C 2,8 C 4,5 C 99 % 1010,4 hPa 0,0 l/m 0 min 0 min 0 W/m 6,4 km/h (2 Bft) 95,65 %
03.12.2020 00:28 3,7 C 2,8 C 4,5 C 99 % 1010,4 hPa 0,0 l/m 0 min 0 min 0 W/m 3,2 km/h (1 Bft) 95,74 %
03.12.2020 00:30 3,7 C 2,8 C 4,5 C 99 % 1010,4 hPa 0,0 l/m 0 min 0 min 0 W/m 6,4 km/h (2 Bft) 95,74 %
03.12.2020 00:32 3,7 C 2,8 C 4,5 C 99 % 1010,4 hPa 0,0 l/m 0 min 0 min 0 W/m 6,4 km/h (2 Bft) 93,62 %
03.12.2020 00:34 3,7 C 2,8 C 4,5 C 99 % 1010,3 hPa 0,0 l/m 0 min 0 min 0 W/m 12,9 km/h (3 Bft) 93,62 %
03.12.2020 00:36 3,7 C 2,8 C 4,5 C 99 % 1010,2 hPa 0,0 l/m 0 min 0 min 0 W/m 3,2 km/h (1 Bft) 95,74 %
03.12.2020 00:38 3,7 C 3,3 C 4,5 C 99 % 1010,2 hPa 0,0 l/m 0 min 0 min 0 W/m 3,2 km/h (1 Bft) 93,48 %
03.12.2020 00:40 3,7 C 2,8 C 4,5 C 99 % 1010,2 hPa 0,0 l/m 0 min 0 min 0 W/m 6,4 km/h (2 Bft) 93,62 %
03.12.2020 00:42 3,7 C 2,8 C 4,5 C 99 % 1010,1 hPa 0,0 l/m 0 min 0 min 0 W/m 3,2 km/h (1 Bft) 97,87 %
03.12.2020 00:44 3,6 C 2,8 C 4,5 C 99 % 1010,1 hPa 0,0 l/m 0 min 0 min 0 W/m 6,4 km/h (2 Bft) 97,87 %
03.12.2020 00:46 3,6 C 2,8 C 4,5 C 99 % 1010,1 hPa 0,0 l/m 0 min 0 min 0 W/m 16,1 km/h (3 Bft) 95,74 %
03.12.2020 00:48 3,6 C 2,8 C 4,5 C 99 % 1010,1 hPa 0,0 l/m 0 min 0 min 0 W/m 0,0 km/h (0 Bft) 97,83 %
03.12.2020 00:50 3,6 C 2,8 C 4,5 C 99 % 1010,0 hPa 0,0 l/m 0 min 0 min 0 W/m 0,0 km/h (0 Bft) 97,87 %
03.12.2020 00:52 3,6 C 2,8 C 4,5 C 99 % 1009,9 hPa 0,0 l/m 0 min 0 min 0 W/m 0,0 km/h (0 Bft) 97,87 %
03.12.2020 00:54 3,6 C 2,8 C 4,5 C 99 % 1009,9 hPa 0,0 l/m 0 min 0 min 0 W/m 0,0 km/h (0 Bft) 97,87 %
03.12.2020 00:56 3,6 C 2,8 C 4,5 C 99 % 1009,9 hPa 0,0 l/m 0 min 0 min 0 W/m 0,0 km/h (0 Bft) 93,62 %
03.12.2020 00:58 3,6 C 2,8 C 4,5 C 99 % 1009,9 hPa 0,0 l/m 0 min 0 min 0 W/m 12,9 km/h (3 Bft) 97,87 %
03.12.2020 01:00 3,6 C 2,8 C 4,5 C 99 % 1009,8 hPa 0,0 l/m 0 min 0 min 0 W/m 6,4 km/h (2 Bft) 97,83 %
03.12.2020 01:02 3,6 C 2,8 C 4,5 C 99 % 1009,8 hPa 0,0 l/m 0 min 0 min 0 W/m 6,4 km/h (2 Bft) 94,44 %
03.12.2020 01:04 3,6 C 2,8 C 4,5 C 99 % 1009,7 hPa 0,0 l/m 0 min 0 min 0 W/m 6,4 km/h (2 Bft) 95,83 %
03.12.2020 01:06 3,6 C 2,8 C 4,5 C 99 % 1009,7 hPa 0,0 l/m 0 min 0 min 0 W/m 6,4 km/h (2 Bft) 95,74 %
03.12.2020 01:08 3,5 C 2,8 C 4,5 C 99 % 1009,7 hPa 0,0 l/m 0 min 0 min 0 W/m 6,4 km/h (2 Bft) 97,87 %
03.12.2020 01:10 3,5 C 2,8 C 4,5 C 99 % 1009,7 hPa 0,0 l/m 0 min 0 min 0 W/m 19,3 km/h (3 Bft) 95,74 %
03.12.2020 01:12 3,5 C 2,8 C 4,5 C 99 % 1009,6 hPa 0,0 l/m 0 min 0 min 0 W/m 16,1 km/h (3 Bft) 97,87 %
03.12.2020 01:14 3,5 C 2,8 C 4,5 C 99 % 1009,6 hPa 0,0 l/m 0 min 0 min 0 W/m 12,9 km/h (3 Bft) 97,83 %
03.12.2020 01:16 3,5 C 2,8 C 4,5 C 99 % 1009,6 hPa 0,0 l/m 0 min 0 min 0 W/m 12,9 km/h (3 Bft) 100,00 %
03.12.2020 01:18 3,5 C 2,8 C 4,5 C 99 % 1009,6 hPa 0,0 l/m 0 min 0 min 0 W/m 6,4 km/h (2 Bft) 97,87 %
03.12.2020 01:20 3,5 C 2,8 C 4,5 C 99 % 1009,5 hPa 0,0 l/m 0 min 0 min 0 W/m 6,4 km/h (2 Bft) 100,00 %
03.12.2020 01:22 3,5 C 2,8 C 4,5 C 99 % 1009,4 hPa 0,0 l/m 0 min 0 min 0 W/m 12,9 km/h (3 Bft) 100,00 %
03.12.2020 01:24 3,5 C 2,8 C 4,5 C 99 % 1009,4 hPa 0,0 l/m 0 min 0 min 0 W/m 12,9 km/h (3 Bft) 100,00 %
03.12.2020 01:26 3,5 C 2,8 C 4,5 C 99 % 1009,4 hPa 0,0 l/m 0 min 0 min 0 W/m 0,0 km/h (0 Bft) 100,00 %
03.12.2020 01:28 3,5 C 2,8 C 4,5 C 99 % 1009,3 hPa 0,0 l/m 0 min 0 min 0 W/m 0,0 km/h (0 Bft) 100,00 %
03.12.2020 01:30 3,5 C 2,8 C 4,5 C 99 % 1009,3 hPa 0,0 l/m 0 min 0 min 0 W/m 0,0 km/h (0 Bft) 100,00 %
03.12.2020 01:32 3,5 C 2,8 C 4,5 C 99 % 1009,3 hPa 0,0 l/m 0 min 0 min 0 W/m 0,0 km/h (0 Bft) 100,00 %
03.12.2020 01:34 3,5 C 2,8 C 4,5 C 99 % 1009,3 hPa 0,0 l/m 0 min 0 min 0 W/m 0,0 km/h (0 Bft) 100,00 %
03.12.2020 01:36 3,5 C 2,8 C 4,5 C 99 % 1009,2 hPa 0,0 l/m 0 min 0 min 0 W/m 0,0 km/h (0 Bft) 100,00 %
03.12.2020 01:38 3,5 C 2,8 C 4,5 C 99 % 1009,2 hPa 0,0 l/m 0 min 0 min 0 W/m 0,0 km/h (0 Bft) 100,00 %
03.12.2020 01:40 3,5 C 2,8 C 4,5 C 99 % 1009,2 hPa 0,0 l/m 0 min 0 min 0 W/m 0,0 km/h (0 Bft) 100,00 %
03.12.2020 01:42 3,5 C 2,8 C 4,5 C 99 % 1009,1 hPa 0,0 l/m 0 min 0 min 0 W/m 0,0 km/h (0 Bft) 100,00 %
03.12.2020 01:44 3,5 C 2,8 C 4,5 C 99 % 1009,1 hPa 0,0 l/m 0 min 0 min 0 W/m 0,0 km/h (0 Bft) 100,00 %
03.12.2020 01:46 3,5 C 2,8 C 4,5 C 99 % 1009,1 hPa 0,0 l/m 0 min 0 min 0 W/m 0,0 km/h (0 Bft) 100,00 %
03.12.2020 01:48 3,5 C 2,8 C 4,5 C 99 % 1009,1 hPa 0,0 l/m 0 min 0 min 0 W/m 0,0 km/h (0 Bft) 100,00 %
03.12.2020 01:50 3,5 C 2,8 C 4,5 C 99 % 1009,1 hPa 0,0 l/m 0 min 0 min 0 W/m 0,0 km/h (0 Bft) 100,00 %
03.12.2020 01:52 3,5 C 2,8 C 4,5 C 99 % 1009,0 hPa 0,0 l/m 0 min 0 min 0 W/m 0,0 km/h (0 Bft) 100,00 %
03.12.2020 01:54 3,5 C 2,8 C 4,5 C 99 % 1009,0 hPa 0,0 l/m 0 min 0 min 0 W/m 6,4 km/h (2 Bft) 100,00 %
03.12.2020 01:56 3,5 C 2,8 C 4,5 C 99 % 1008,9 hPa 0,0 l/m 0 min 0 min 0 W/m 12,9 km/h (3 Bft) 97,87 %
03.12.2020 01:58 3,5 C 2,8 C 4,5 C 99 % 1008,9 hPa 0,0 l/m 0 min 0 min 0 W/m 6,4 km/h (2 Bft) 95,74 %
03.12.2020 02:00 3,5 C 2,8 C 4,5 C 99 % 1008,9 hPa 0,0 l/m 0 min 0 min 0 W/m 12,9 km/h (3 Bft) 100,00 %
03.12.2020 02:02 3,5 C 2,8 C 4,5 C 99 % 1008,8 hPa 0,0 l/m 0 min 0 min 0 W/m 12,9 km/h (3 Bft) 100,00 %
03.12.2020 02:04 3,5 C 2,8 C 4,5 C 99 % 1008,8 hPa 0,0 l/m 0 min 0 min 0 W/m 3,2 km/h (1 Bft) 100,00 %
03.12.2020 02:06 3,5 C 2,8 C 4,5 C 99 % 1008,8 hPa 0,0 l/m 0 min 0 min 0 W/m 3,2 km/h (1 Bft) 100,00 %
03.12.2020 02:08 3,5 C 2,8 C 4,5 C 99 % 1008,8 hPa 0,0 l/m 0 min 0 min 0 W/m 0,0 km/h (0 Bft) 100,00 %
03.12.2020 02:10 3,5 C 2,8 C 4,5 C 99 % 1008,8 hPa 0,0 l/m 0 min 0 min 0 W/m 12,9 km/h (3 Bft) 100,00 %
03.12.2020 02:12 3,5 C 2,8 C 4,5 C 99 % 1008,8 hPa 0,0 l/m 0 min 0 min 0 W/m 12,9 km/h (3 Bft) 100,00 %
03.12.2020 02:14 3,5 C 2,8 C 4,5 C 99 % 1008,7 hPa 0,0 l/m 0 min 0 min 0 W/m 3,2 km/h (1 Bft) 97,87 %
03.12.2020 02:16 3,5 C 2,8 C 4,5 C 99 % 1008,7 hPa 0,0 l/m 0 min 2 min 0 W/m 0,0 km/h (0 Bft) 100,00 %
03.12.2020 02:18 3,5 C 2,8 C 4,5 C 99 % 1008,7 hPa 0,0 l/m 0 min 2 min 0 W/m 6,4 km/h (2 Bft) 100,00 %
03.12.2020 02:20 3,5 C 2,8 C 4,5 C 99 % 1008,6 hPa 0,2 l/m 0 min 2 min 0 W/m 3,2 km/h (1 Bft) 100,00 %
03.12.2020 02:22 3,5 C 2,8 C 4,5 C 99 % 1008,5 hPa 0,0 l/m 0 min 2 min 0 W/m 0,0 km/h (0 Bft) 97,87 %
03.12.2020 02:24 3,5 C 2,8 C 4,5 C 99 % 1008,5 hPa 0,0 l/m 0 min 2 min 0 W/m 3,2 km/h (1 Bft) 97,87 %
03.12.2020 02:26 3,5 C 2,8 C 4,5 C 99 % 1008,4 hPa 0,0 l/m 0 min 0 min 0 W/m 12,9 km/h (3 Bft) 97,87 %
03.12.2020 02:28 3,5 C 2,8 C 4,5 C 99 % 1008,4 hPa 0,0 l/m 0 min 0 min 0 W/m 16,1 km/h (3 Bft) 97,87 %
03.12.2020 02:30 3,5 C 2,8 C 4,5 C 99 % 1008,3 hPa 0,0 l/m 0 min 0 min 0 W/m 6,4 km/h (2 Bft) 97,87 %
03.12.2020 02:32 3,6 C 2,8 C 4,5 C 99 % 1008,4 hPa 0,0 l/m 0 min 0 min 0 W/m 12,9 km/h (3 Bft) 97,83 %
03.12.2020 02:34 3,5 C 2,8 C 4,5 C 99 % 1008,4 hPa 0,0 l/m 0 min 0 min 0 W/m 12,9 km/h (3 Bft) 95,74 %
03.12.2020 02:36 3,5 C 2,8 C 4,5 C 100 % 1008,3 hPa 0,0 l/m 0 min 0 min 0 W/m 3,2 km/h (1 Bft) 97,87 %
03.12.2020 02:38 3,6 C 2,8 C 4,5 C 99 % 1008,4 hPa 0,0 l/m 0 min 0 min 0 W/m 6,4 km/h (2 Bft) 97,87 %
03.12.2020 02:40 3,6 C 2,8 C 4,5 C 100 % 1008,4 hPa 0,0 l/m 0 min 0 min 0 W/m 6,4 km/h (2 Bft) 95,74 %
03.12.2020 02:42 3,6 C 2,8 C 4,5 C 99 % 1008,4 hPa 0,0 l/m 0 min 0 min 0 W/m 3,2 km/h (1 Bft) 97,87 %
03.12.2020 02:44 3,6 C 2,8 C 4,5 C 100 % 1008,3 hPa 0,0 l/m 0 min 0 min 0 W/m 16,1 km/h (3 Bft) 97,83 %
03.12.2020 02:46 3,6 C 2,8 C 4,5 C 100 % 1008,3 hPa 0,0 l/m 0 min 0 min 0 W/m 12,9 km/h (3 Bft) 97,87 %
03.12.2020 02:48 3,6 C 2,8 C 4,5 C 100 % 1008,3 hPa 0,0 l/m 0 min 0 min 0 W/m 12,9 km/h (3 Bft) 97,87 %
03.12.2020 02:50 3,6 C 2,8 C 4,5 C 100 % 1008,2 hPa 0,0 l/m 0 min 0 min 0 W/m 6,4 km/h (2 Bft) 97,87 %
03.12.2020 02:52 3,6 C 2,8 C 4,5 C 100 % 1008,2 hPa 0,0 l/m 0 min 0 min 0 W/m 6,4 km/h (2 Bft) 97,87 %
03.12.2020 02:54 3,6 C 2,8 C 4,5 C 100 % 1008,2 hPa 0,0 l/m 0 min 0 min 0 W/m 12,9 km/h (3 Bft) 97,87 %
03.12.2020 02:56 3,6 C 2,8 C 4,5 C 100 % 1008,2 hPa 0,0 l/m 0 min 0 min 0 W/m 16,1 km/h (3 Bft) 97,83 %
03.12.2020 02:58 3,6 C 2,8 C 4,5 C 100 % 1008,1 hPa 0,0 l/m 0 min 0 min 0 W/m 12,9 km/h (3 Bft) 95,74 %
03.12.2020 03:00 3,6 C 2,8 C 4,5 C 100 % 1008,1 hPa 0,0 l/m 0 min 0 min 0 W/m 3,2 km/h (1 Bft) 97,87 %
03.12.2020 03:02 3,6 C 2,8 C 4,5 C 100 % 1008,1 hPa 0,0 l/m 0 min 0 min 0 W/m 3,2 km/h (1 Bft) 97,87 %
03.12.2020 03:04 3,6 C 2,8 C 4,5 C 100 % 1008,1 hPa 0,0 l/m 0 min 0 min 0 W/m 12,9 km/h (3 Bft) 97,87 %
03.12.2020 03:06 3,6 C 2,8 C 4,5 C 100 % 1008,0 hPa 0,0 l/m 0 min 0 min 0 W/m 6,4 km/h (2 Bft) 97,87 %
03.12.2020 03:08 3,6 C 2,8 C 4,5 C 100 % 1008,0 hPa 0,0 l/m 0 min 0 min 0 W/m 3,2 km/h (1 Bft) 100,00 %
03.12.2020 03:10 3,6 C 2,8 C 4,5 C 100 % 1008,0 hPa 0,0 l/m 0 min 0 min 0 W/m 6,4 km/h (2 Bft) 100,00 %
03.12.2020 03:12 3,6 C 2,8 C 4,5 C 100 % 1008,0 hPa 0,0 l/m 0 min 0 min 0 W/m 0,0 km/h (0 Bft) 100,00 %
03.12.2020 03:14 3,6 C 2,8 C 4,5 C 100 % 1007,9 hPa 0,0 l/m 0 min 0 min 0 W/m 3,2 km/h (1 Bft) 100,00 %
03.12.2020 03:16 3,6 C 2,8 C 4,5 C 100 % 1007,9 hPa 0,0 l/m 0 min 0 min 0 W/m 3,2 km/h (1 Bft) 100,00 %
03.12.2020 03:18 3,6 C 2,8 C 4,5 C 100 % 1007,9 hPa 0,0 l/m 0 min 0 min 0 W/m 6,4 km/h (2 Bft) 100,00 %
03.12.2020 03:20 3,6 C 2,8 C 4,5 C 100 % 1007,8 hPa 0,0 l/m 0 min 0 min 0 W/m 12,9 km/h (3 Bft) 97,87 %
03.12.2020 03:22 3,6 C 2,8 C 4,5 C 100 % 1007,8 hPa 0,0 l/m 0 min 0 min 0 W/m 12,9 km/h (3 Bft) 97,87 %
03.12.2020 03:24 3,6 C 3,3 C 4,5 C 100 % 1007,8 hPa 0,0 l/m 0 min 0 min 0 W/m 0,0 km/h (0 Bft) 95,74 %
03.12.2020 03:26 3,6 C 3,3 C 4,5 C 100 % 1007,7 hPa 0,0 l/m 0 min 0 min 0 W/m 6,4 km/h (2 Bft) 97,87 %
03.12.2020 03:28 3,6 C 3,3 C 4,5 C 100 % 1007,7 hPa 0,0 l/m 0 min 0 min 0 W/m 6,4 km/h (2 Bft) 100,00 %
03.12.2020 03:30 3,7 C 3,3 C 4,5 C 100 % 1007,7 hPa 0,0 l/m 0 min 0 min 0 W/m 3,2 km/h (1 Bft) 95,65 %
03.12.2020 03:32 3,7 C 3,3 C 4,5 C 100 % 1007,7 hPa 0,0 l/m 0 min 0 min 0 W/m 6,4 km/h (2 Bft) 97,87 %
03.12.2020 03:34 3,6 C 3,3 C 4,5 C 100 % 1007,7 hPa 0,0 l/m 0 min 0 min 0 W/m 3,2 km/h (1 Bft) 97,87 %
03.12.2020 03:36 3,6 C 3,3 C 4,5 C 100 % 1007,7 hPa 0,0 l/m 0 min 0 min 0 W/m 6,4 km/h (2 Bft) 95,74 %
03.12.2020 03:38 3,7 C 3,3 C 4,5 C 100 % 1007,6 hPa 0,0 l/m 0 min 0 min 0 W/m 6,4 km/h (2 Bft) 95,74 %
03.12.2020 03:40 3,7 C 3,3 C 4,5 C 100 % 1007,5 hPa 0,0 l/m 0 min 0 min 0 W/m 6,4 km/h (2 Bft) 97,87 %
03.12.2020 03:42 3,7 C 3,3 C 4,5 C 100 % 1007,5 hPa 0,0 l/m 0 min 0 min 0 W/m 0,0 km/h (0 Bft) 93,48 %
03.12.2020 03:44 3,7 C 3,3 C 4,5 C 100 % 1007,5 hPa 0,0 l/m 0 min 0 min 0 W/m 16,1 km/h (3 Bft) 97,87 %
03.12.2020 03:46 3,7 C 3,3 C 4,5 C 100 % 1007,4 hPa 0,0 l/m 0 min 0 min 0 W/m 6,4 km/h (2 Bft) 97,87 %
03.12.2020 03:48 3,7 C 3,3 C 4,5 C 100 % 1007,3 hPa 0,0 l/m 0 min 0 min 0 W/m 12,9 km/h (3 Bft) 97,87 %
03.12.2020 03:50 3,7 C 3,3 C 4,5 C 100 % 1007,3 hPa 0,0 l/m 0 min 0 min 0 W/m 3,2 km/h (1 Bft) 97,87 %
03.12.2020 03:52 3,7 C 3,3 C 4,5 C 100 % 1007,3 hPa 0,0 l/m 0 min 0 min 0 W/m 6,4 km/h (2 Bft) 97,87 %
03.12.2020 03:54 3,7 C 3,3 C 4,5 C 100 % 1007,2 hPa 0,0 l/m 0 min 0 min 0 W/m 3,2 km/h (1 Bft) 97,83 %
03.12.2020 03:56 3,7 C 3,3 C 4,5 C 100 % 1007,2 hPa 0,0 l/m 0 min 0 min 0 W/m 3,2 km/h (1 Bft) 95,74 %
03.12.2020 03:58 3,7 C 3,3 C 4,5 C 100 % 1007,2 hPa 0,0 l/m 0 min 0 min 0 W/m 6,4 km/h (2 Bft) 97,87 %
03.12.2020 04:00 3,7 C 3,3 C 4,5 C 100 % 1007,2 hPa 0,0 l/m 0 min 0 min 0 W/m 6,4 km/h (2 Bft) 97,87 %
03.12.2020 04:02 3,7 C 3,3 C 4,5 C 100 % 1007,1 hPa 0,0 l/m 0 min 0 min 0 W/m 3,2 km/h (1 Bft) 96,97 %
03.12.2020 04:04 3,8 C 3,3 C 4,5 C 100 % 1007,1 hPa 0,0 l/m 0 min 0 min 0 W/m 3,2 km/h (1 Bft) 97,87 %
03.12.2020 04:06 3,8 C 3,3 C 4,5 C 100 % 1007,1 hPa 0,0 l/m 0 min 0 min 0 W/m 12,9 km/h (3 Bft) 97,83 %
03.12.2020 04:08 3,8 C 3,3 C 4,5 C 100 % 1007,1 hPa 0,0 l/m 0 min 0 min 0 W/m 16,1 km/h (3 Bft) 97,87 %
03.12.2020 04:10 3,8 C 3,3 C 4,5 C 100 % 1007,1 hPa 0,0 l/m 0 min 0 min 0 W/m 6,4 km/h (2 Bft) 100,00 %
03.12.2020 04:12 3,8 C 3,3 C 4,5 C 99 % 1007,1 hPa 0,0 l/m 0 min 0 min 0 W/m 0,0 km/h (0 Bft) 97,87 %
03.12.2020 04:14 3,8 C 3,3 C 4,5 C 99 % 1007,1 hPa 0,0 l/m 0 min 0 min 0 W/m 3,2 km/h (1 Bft) 100,00 %
03.12.2020 04:16 3,8 C 3,3 C 4,5 C 99 % 1007,0 hPa 0,0 l/m 0 min 0 min 0 W/m 0,0 km/h (0 Bft) 100,00 %
03.12.2020 04:18 3,8 C 3,3 C 4,5 C 99 % 1007,0 hPa 0,0 l/m 0 min 0 min 0 W/m 0,0 km/h (0 Bft) 100,00 %
03.12.2020 04:20 3,8 C 3,3 C 5,0 C 99 % 1007,0 hPa 0,0 l/m 0 min 0 min 0 W/m 3,2 km/h (1 Bft) 95,74 %
03.12.2020 04:22 3,8 C 3,3 C 4,5 C 99 % 1006,9 hPa 0,0 l/m 0 min 0 min 0 W/m 3,2 km/h (1 Bft) 100,00 %
03.12.2020 04:24 3,8 C 3,3 C 4,5 C 99 % 1006,9 hPa 0,0 l/m 0 min 0 min 0 W/m 0,0 km/h (0 Bft) 100,00 %
03.12.2020 04:26 3,8 C 3,3 C 4,5 C 99 % 1006,8 hPa 0,0 l/m 0 min 0 min 0 W/m 3,2 km/h (1 Bft) 97,87 %
03.12.2020 04:28 3,8 C 3,3 C 4,5 C 99 % 1006,8 hPa 0,0 l/m 0 min 0 min 0 W/m 0,0 km/h (0 Bft) 54,76 %
03.12.2020 04:30 3,8 C 3,3 C 4,5 C 99 % 1006,8 hPa 0,0 l/m 0 min 0 min 0 W/m 6,4 km/h (2 Bft) 100,00 %
03.12.2020 04:32 3,8 C 3,3 C 4,5 C 99 % 1006,8 hPa 0,0 l/m 0 min 0 min 0 W/m 0,0 km/h (0 Bft) 100,00 %
03.12.2020 04:34 3,8 C 3,3 C 4,5 C 99 % 1006,8 hPa 0,0 l/m 0 min 0 min 0 W/m 0,0 km/h (0 Bft) 100,00 %
03.12.2020 04:36 3,8 C 3,3 C 4,5 C 99 % 1006,7 hPa 0,0 l/m 0 min 0 min 0 W/m 3,2 km/h (1 Bft) 100,00 %
03.12.2020 04:38 3,8 C 3,3 C 4,5 C 99 % 1006,6 hPa 0,0 l/m 0 min 0 min 0 W/m 6,4 km/h (2 Bft) 100,00 %
03.12.2020 04:40 3,8 C 3,3 C 4,5 C 99 % 1006,6 hPa 0,0 l/m 0 min 0 min 0 W/m 12,9 km/h (3 Bft) 97,87 %
03.12.2020 04:42 3,9 C 3,3 C 4,5 C 99 % 1006,6 hPa 0,0 l/m 0 min 0 min 0 W/m 12,9 km/h (3 Bft) 100,00 %
03.12.2020 04:44 3,9 C 3,3 C 4,5 C 99 % 1006,6 hPa 0,0 l/m 0 min 0 min 0 W/m 3,2 km/h (1 Bft) 100,00 %
03.12.2020 04:46 3,8 C 3,3 C 4,5 C 99 % 1006,6 hPa 0,0 l/m 0 min 0 min 0 W/m 6,4 km/h (2 Bft) 100,00 %
03.12.2020 04:48 3,8 C 3,3 C 4,5 C 99 % 1006,5 hPa 0,0 l/m 0 min 0 min 0 W/m 12,9 km/h (3 Bft) 100,00 %
03.12.2020 04:50 3,8 C 3,3 C 4,5 C 99 % 1006,5 hPa 0,0 l/m 0 min 0 min 0 W/m 0,0 km/h (0 Bft) 97,87 %
03.12.2020 04:52 3,9 C 3,3 C 4,5 C 99 % 1006,4 hPa 0,0 l/m 0 min 0 min 0 W/m 0,0 km/h (0 Bft) 100,00 %
03.12.2020 04:54 3,8 C 3,3 C 4,5 C 99 % 1006,4 hPa 0,0 l/m 0 min 0 min 0 W/m 0,0 km/h (0 Bft) 97,87 %
03.12.2020 04:56 3,8 C 3,3 C 4,5 C 99 % 1006,3 hPa 0,0 l/m 0 min 0 min 0 W/m 0,0 km/h (0 Bft) 97,87 %
03.12.2020 04:58 3,8 C 3,3 C 4,5 C 99 % 1006,3 hPa 0,0 l/m 0 min 0 min 0 W/m 0,0 km/h (0 Bft) 97,87 %
03.12.2020 05:00 3,8 C 3,3 C 4,5 C 99 % 1006,3 hPa 0,0 l/m 0 min 0 min 0 W/m 0,0 km/h (0 Bft) 97,87 %
03.12.2020 05:02 3,8 C 3,3 C 4,5 C 99 % 1006,2 hPa 0,0 l/m 0 min 0 min 0 W/m 0,0 km/h (0 Bft) 97,92 %
03.12.2020 05:04 3,8 C 3,3 C 4,5 C 99 % 1006,2 hPa 0,0 l/m 0 min 0 min 0 W/m 0,0 km/h (0 Bft) 97,83 %
03.12.2020 05:06 3,8 C 3,3 C 4,5 C 99 % 1006,2 hPa 0,0 l/m 0 min 0 min 0 W/m 0,0 km/h (0 Bft) 95,74 %
03.12.2020 05:08 3,8 C 3,3 C 4,5 C 99 % 1006,1 hPa 0,0 l/m 0 min 0 min 0 W/m 0,0 km/h (0 Bft) 97,87 %
03.12.2020 05:10 3,8 C 3,3 C 4,5 C 99 % 1006,1 hPa 0,0 l/m 0 min 0 min 0 W/m 0,0 km/h (0 Bft) 97,87 %
03.12.2020 05:12 3,8 C 3,3 C 4,5 C 99 % 1006,1 hPa 0,0 l/m 0 min 0 min 0 W/m 0,0 km/h (0 Bft) 97,87 %
03.12.2020 05:14 3,8 C 3,3 C 4,5 C 99 % 1006,1 hPa 0,0 l/m 0 min 0 min 0 W/m 0,0 km/h (0 Bft) 97,87 %
03.12.2020 05:16 3,8 C 3,3 C 4,5 C 99 % 1006,1 hPa 0,0 l/m 0 min 0 min 0 W/m 0,0 km/h (0 Bft) 97,83 %
03.12.2020 05:18 3,8 C 3,3 C 4,5 C 99 % 1006,0 hPa 0,0 l/m 0 min 0 min 0 W/m 0,0 km/h (0 Bft) 97,87 %
03.12.2020 05:20 3,8 C 3,3 C 4,5 C 99 % 1006,0 hPa 0,0 l/m 0 min 0 min 0 W/m 0,0 km/h (0 Bft) 97,87 %
03.12.2020 05:22 3,8 C 3,3 C 4,5 C 99 % 1005,9 hPa 0,0 l/m 0 min 0 min 0 W/m 0,0 km/h (0 Bft) 97,87 %
03.12.2020 05:24 3,9 C 3,3 C 4,5 C 100 % 1005,9 hPa 0,0 l/m 0 min 0 min 0 W/m 0,0 km/h (0 Bft) 95,74 %
03.12.2020 05:26 3,9 C 3,3 C 4,5 C 100 % 1005,9 hPa 0,0 l/m 0 min 0 min 0 W/m 0,0 km/h (0 Bft) 97,87 %
03.12.2020 05:28 3,8 C 3,3 C 4,5 C 100 % 1005,9 hPa 0,0 l/m 0 min 0 min 0 W/m 0,0 km/h (0 Bft) 97,83 %
03.12.2020 05:30 3,9 C 3,3 C 4,5 C 100 % 1005,9 hPa 0,0 l/m 0 min 0 min 0 W/m 0,0 km/h (0 Bft) 97,96 %
03.12.2020 05:32 3,9 C 3,3 C 4,5 C 100 % 1005,8 hPa 0,0 l/m 0 min 0 min 0 W/m 0,0 km/h (0 Bft) 97,14 %
03.12.2020 05:34 3,9 C 3,3 C 4,5 C 100 % 1005,8 hPa 0,0 l/m 0 min 0 min 0 W/m 0,0 km/h (0 Bft) 100,00 %
03.12.2020 05:36 3,9 C 3,3 C 4,5 C 100 % 1005,8 hPa 0,0 l/m 0 min 0 min 0 W/m 6,4 km/h (2 Bft) 100,00 %
03.12.2020 05:38 3,9 C 3,3 C 4,5 C 100 % 1005,8 hPa 0,0 l/m 0 min 0 min 0 W/m 12,9 km/h (3 Bft) 100,00 %
03.12.2020 05:40 3,9 C 3,3 C 4,5 C 100 % 1005,8 hPa 0,0 l/m 0 min 0 min 0 W/m 6,4 km/h (2 Bft) 100,00 %
03.12.2020 05:42 3,9 C 3,3 C 4,5 C 100 % 1005,8 hPa 0,0 l/m 0 min 0 min 0 W/m 6,4 km/h (2 Bft) 100,00 %
03.12.2020 05:44 3,9 C 3,3 C 4,5 C 100 % 1005,8 hPa 0,0 l/m 0 min 0 min 0 W/m 12,9 km/h (3 Bft) 100,00 %
03.12.2020 05:46 3,9 C 3,3 C 4,5 C 100 % 1005,8 hPa 0,0 l/m 0 min 0 min 0 W/m 0,0 km/h (0 Bft) 100,00 %
03.12.2020 05:48 3,9 C 3,3 C 4,5 C 100 % 1005,8 hPa 0,0 l/m 0 min 0 min 0 W/m 12,9 km/h (3 Bft) 100,00 %
03.12.2020 05:50 3,9 C 3,3 C 4,5 C 100 % 1005,7 hPa 0,0 l/m 0 min 0 min 0 W/m 6,4 km/h (2 Bft) 100,00 %
03.12.2020 05:52 3,9 C 3,3 C 5,0 C 100 % 1005,8 hPa 0,0 l/m 0 min 0 min 0 W/m 6,4 km/h (2 Bft) 100,00 %
03.12.2020 05:54 3,9 C 3,3 C 5,0 C 100 % 1005,8 hPa 0,0 l/m 0 min 0 min 0 W/m 12,9 km/h (3 Bft) 100,00 %
03.12.2020 05:56 3,9 C 3,3 C 5,0 C 100 % 1005,7 hPa 0,0 l/m 0 min 0 min 0 W/m 6,4 km/h (2 Bft) 96,00 %
03.12.2020 05:58 3,9 C 3,3 C 5,0 C 100 % 1005,7 hPa 0,0 l/m 0 min 0 min 0 W/m 12,9 km/h (3 Bft) 100,00 %
03.12.2020 06:00 3,9 C 3,3 C 5,0 C 100 % 1005,7 hPa 0,0 l/m 0 min 0 min 0 W/m 0,0 km/h (0 Bft) 100,00 %
03.12.2020 06:02 3,9 C 3,3 C 5,0 C 100 % 1005,6 hPa 0,0 l/m 0 min 0 min 0 W/m 3,2 km/h (1 Bft) 100,00 %
03.12.2020 06:04 3,9 C 3,3 C 5,0 C 100 % 1005,6 hPa 0,0 l/m 0 min 0 min 0 W/m 12,9 km/h (3 Bft) 100,00 %
03.12.2020 06:07 3,9 C 3,3 C 5,0 C 100 % 1005,6 hPa 0,0 l/m 0 min 0 min 0 W/m 6,4 km/h (2 Bft) 100,00 %
03.12.2020 06:08 3,9 C 3,3 C 5,0 C 100 % 1005,6 hPa 0,0 l/m 0 min 0 min 0 W/m 6,4 km/h (2 Bft) 95,83 %
03.12.2020 06:10 3,9 C 3,3 C 5,0 C 100 % 1005,5 hPa 0,0 l/m 0 min 0 min 0 W/m 6,4 km/h (2 Bft) 100,00 %
03.12.2020 06:12 3,9 C 3,3 C 5,0 C 100 % 1005,5 hPa 0,0 l/m 0 min 0 min 0 W/m 6,4 km/h (2 Bft) 100,00 %
03.12.2020 06:14 3,9 C 3,3 C 5,0 C 100 % 1005,4 hPa 0,0 l/m 0 min 0 min 0 W/m 6,4 km/h (2 Bft) 97,83 %
03.12.2020 06:16 3,9 C 3,3 C 5,0 C 100 % 1005,4 hPa 0,0 l/m 0 min 0 min 0 W/m 3,2 km/h (1 Bft) 97,87 %
03.12.2020 06:18 3,9 C 3,3 C 5,0 C 100 % 1005,4 hPa 0,0 l/m 0 min 0 min 0 W/m 6,4 km/h (2 Bft) 97,87 %
03.12.2020 06:20 3,9 C 3,3 C 5,0 C 100 % 1005,4 hPa 0,0 l/m 0 min 0 min 0 W/m 6,4 km/h (2 Bft) 97,87 %
03.12.2020 06:22 3,9 C 3,3 C 5,0 C 100 % 1005,4 hPa 0,0 l/m 0 min 0 min 0 W/m 0,0 km/h (0 Bft) 97,87 %
03.12.2020 06:24 3,9 C 3,3 C 5,0 C 100 % 1005,3 hPa 0,0 l/m 0 min 0 min 0 W/m 0,0 km/h (0 Bft) 97,87 %
03.12.2020 06:26 3,9 C 3,3 C 5,0 C 100 % 1005,3 hPa 0,0 l/m 0 min 0 min 0 W/m 0,0 km/h (0 Bft) 97,83 %
03.12.2020 06:28 3,9 C 3,3 C 5,0 C 100 % 1005,4 hPa 0,0 l/m 0 min 0 min 0 W/m 16,1 km/h (3 Bft) 93,62 %
03.12.2020 06:30 3,9 C 3,3 C 5,0 C 100 % 1005,2 hPa 0,0 l/m 0 min 0 min 0 W/m 3,2 km/h (1 Bft) 97,87 %
03.12.2020 06:32 3,9 C 3,3 C 5,0 C 100 % 1005,2 hPa 0,0 l/m 0 min 0 min 0 W/m 3,2 km/h (1 Bft) 97,92 %
03.12.2020 06:34 3,9 C 3,3 C 5,0 C 100 % 1005,1 hPa 0,0 l/m 0 min 0 min 0 W/m 3,2 km/h (1 Bft) 97,87 %
03.12.2020 06:36 3,9 C 3,3 C 5,0 C 100 % 1005,1 hPa 0,0 l/m 0 min 0 min 0 W/m 0,0 km/h (0 Bft) 97,83 %
03.12.2020 06:38 3,9 C 3,3 C 5,0 C 100 % 1005,1 hPa 0,0 l/m 0 min 0 min 0 W/m 6,4 km/h (2 Bft) 97,87 %
03.12.2020 06:40 3,9 C 3,3 C 5,0 C 100 % 1005,0 hPa 0,0 l/m 0 min 0 min 0 W/m 12,9 km/h (3 Bft) 97,87 %
03.12.2020 06:42 3,9 C 3,3 C 5,0 C 100 % 1005,0 hPa 0,0 l/m 0 min 0 min 0 W/m 3,2 km/h (1 Bft) 97,87 %
03.12.2020 06:44 3,9 C 3,3 C 5,0 C 100 % 1004,9 hPa 0,0 l/m 0 min 0 min 0 W/m 3,2 km/h (1 Bft) 95,74 %
03.12.2020 06:46 3,9 C 3,3 C 5,0 C 100 % 1004,9 hPa 0,0 l/m 0 min 0 min 0 W/m 0,0 km/h (0 Bft) 97,87 %
03.12.2020 06:48 3,9 C 3,3 C 5,0 C 100 % 1004,8 hPa 0,0 l/m 0 min 0 min 0 W/m 3,2 km/h (1 Bft) 97,83 %
03.12.2020 06:50 3,9 C 3,3 C 5,0 C 100 % 1004,8 hPa 0,0 l/m 0 min 0 min 0 W/m 3,2 km/h (1 Bft) 97,87 %
03.12.2020 06:52 3,9 C 3,3 C 5,0 C 100 % 1004,8 hPa 0,0 l/m 0 min 0 min 0 W/m 12,9 km/h (3 Bft) 97,87 %
03.12.2020 06:54 4,0 C 3,3 C 5,0 C 100 % 1004,8 hPa 0,0 l/m 0 min 0 min 0 W/m 0,0 km/h (0 Bft) 97,87 %
03.12.2020 06:56 4,0 C 3,3 C 5,0 C 100 % 1004,7 hPa 0,0 l/m 0 min 0 min 0 W/m 0,0 km/h (0 Bft) 97,87 %
03.12.2020 06:58 4,0 C 3,3 C 5,0 C 100 % 1004,7 hPa 0,0 l/m 0 min 0 min 0 W/m 0,0 km/h (0 Bft) 97,87 %
03.12.2020 07:00 4,0 C 3,3 C 5,0 C 100 % 1004,7 hPa 0,0 l/m 0 min 2 min 0 W/m 6,4 km/h (2 Bft) 97,83 %
03.12.2020 07:02 4,0 C 3,3 C 5,0 C 100 % 1004,7 hPa 0,0 l/m 0 min 2 min 0 W/m 0,0 km/h (0 Bft) 100,00 %
03.12.2020 07:04 4,0 C 3,3 C 5,0 C 100 % 1004,6 hPa 0,0 l/m 0 min 2 min 0 W/m 3,2 km/h (1 Bft) 100,00 %
03.12.2020 07:06 4,0 C 3,3 C 5,0 C 100 % 1004,7 hPa 0,0 l/m 0 min 2 min 0 W/m 3,2 km/h (1 Bft) 100,00 %
03.12.2020 07:08 4,0 C 3,3 C 5,0 C 100 % 1004,6 hPa 0,0 l/m 0 min 0 min 0 W/m 0,0 km/h (0 Bft) 97,87 %
03.12.2020 07:10 4,0 C 3,3 C 5,0 C 100 % 1004,6 hPa 0,0 l/m 0 min 0 min 0 W/m 6,4 km/h (2 Bft) 97,87 %
03.12.2020 07:12 4,0 C 3,3 C 5,0 C 100 % 1004,6 hPa 0,0 l/m 0 min 0 min 0 W/m 0,0 km/h (0 Bft) 97,83 %
03.12.2020 07:14 4,0 C 3,3 C 5,0 C 100 % 1004,5 hPa 0,0 l/m 0 min 0 min 0 W/m 6,4 km/h (2 Bft) 100,00 %
03.12.2020 07:16 4,0 C 3,3 C 5,0 C 100 % 1004,4 hPa 0,0 l/m 0 min 0 min 0 W/m 3,2 km/h (1 Bft) 100,00 %
03.12.2020 07:18 4,0 C 3,3 C 5,0 C 100 % 1004,3 hPa 0,0 l/m 0 min 0 min 0 W/m 3,2 km/h (1 Bft) 97,22 %
03.12.2020 07:20 4,0 C 3,3 C 5,0 C 100 % 1004,2 hPa 0,0 l/m 0 min 0 min 0 W/m 0,0 km/h (0 Bft) 95,74 %
03.12.2020 07:22 3,9 C 3,3 C 5,0 C 100 % 1004,1 hPa 0,0 l/m 0 min 0 min 0 W/m 12,9 km/h (3 Bft) 97,87 %
03.12.2020 07:24 3,9 C 3,3 C 5,0 C 99 % 1004,1 hPa 0,0 l/m 0 min 0 min 0 W/m 6,4 km/h (2 Bft) 97,83 %
03.12.2020 07:26 3,9 C 3,3 C 4,5 C 99 % 1004,1 hPa 0,0 l/m 0 min 0 min 0 W/m 12,9 km/h (3 Bft) 97,87 %
03.12.2020 07:28 3,9 C 3,3 C 4,5 C 99 % 1004,1 hPa 0,0 l/m 0 min 0 min 0 W/m 12,9 km/h (3 Bft) 95,74 %
03.12.2020 07:30 3,9 C 3,3 C 4,5 C 99 % 1004,1 hPa 0,0 l/m 0 min 0 min 0 W/m 16,1 km/h (3 Bft) 97,87 %
03.12.2020 07:32 3,9 C 3,3 C 4,5 C 99 % 1004,1 hPa 0,0 l/m 0 min 0 min 0 W/m 16,1 km/h (3 Bft) 95,74 %
03.12.2020 07:34 3,9 C 3,3 C 4,5 C 99 % 1004,1 hPa 0,0 l/m 0 min 0 min 0 W/m 16,1 km/h (3 Bft) 97,83 %
03.12.2020 07:36 3,9 C 3,3 C 4,5 C 99 % 1004,1 hPa 0,0 l/m 0 min 0 min 0 W/m 12,9 km/h (3 Bft) 97,87 %
03.12.2020 07:38 3,9 C 3,3 C 4,5 C 99 % 1004,1 hPa 0,0 l/m 0 min 0 min 0 W/m 12,9 km/h (3 Bft) 97,87 %
03.12.2020 07:40 3,9 C 3,3 C 4,5 C 99 % 1004,0 hPa 0,0 l/m 0 min 0 min 0 W/m 16,1 km/h (3 Bft) 97,87 %
03.12.2020 07:42 3,9 C 3,3 C 4,5 C 99 % 1004,1 hPa 0,0 l/m 0 min 0 min 0 W/m 16,1 km/h (3 Bft) 95,74 %
03.12.2020 07:44 3,8 C 3,3 C 4,5 C 99 % 1004,1 hPa 0,0 l/m 0 min 0 min 0 W/m 12,9 km/h (3 Bft) 97,87 %
03.12.2020 07:46 3,8 C 3,3 C 4,5 C 99 % 1004,0 hPa 0,0 l/m 0 min 0 min 0 W/m 0,0 km/h (0 Bft) 97,83 %
03.12.2020 07:48 3,8 C 3,3 C 4,5 C 99 % 1004,1 hPa 0,0 l/m 0 min 0 min 0 W/m 6,4 km/h (2 Bft) 97,87 %
03.12.2020 07:50 3,8 C 3,3 C 4,5 C 99 % 1004,0 hPa 0,0 l/m 0 min 0 min 0 W/m 3,2 km/h (1 Bft) 97,87 %
03.12.2020 07:52 3,8 C 3,3 C 4,5 C 99 % 1004,0 hPa 0,0 l/m 0 min 0 min 0 W/m 6,4 km/h (2 Bft) 98,08 %
03.12.2020 07:54 3,8 C 3,3 C 4,5 C 99 % 1004,0 hPa 0,0 l/m 0 min 0 min 0 W/m 3,2 km/h (1 Bft) 97,87 %
03.12.2020 07:56 3,8 C 3,3 C 4,5 C 99 % 1004,0 hPa 0,0 l/m 0 min 0 min 0 W/m 12,9 km/h (3 Bft) 97,87 %
03.12.2020 07:58 3,8 C 3,3 C 4,5 C 99 % 1004,0 hPa 0,0 l/m 0 min 0 min 0 W/m 12,9 km/h (3 Bft) 97,83 %
03.12.2020 08:00 3,8 C 3,3 C 4,5 C 99 % 1003,9 hPa 0,0 l/m 0 min 0 min 0 W/m 16,1 km/h (3 Bft) 100,00 %
03.12.2020 08:02 3,8 C 3,3 C 4,5 C 99 % 1003,9 hPa 0,0 l/m 0 min 0 min 0 W/m 6,4 km/h (2 Bft) 100,00 %
03.12.2020 08:04 3,8 C 3,3 C 4,5 C 99 % 1003,9 hPa 0,0 l/m 0 min 0 min 0 W/m 6,4 km/h (2 Bft) 100,00 %
03.12.2020 08:06 3,8 C 3,3 C 4,5 C 99 % 1003,9 hPa 0,0 l/m 0 min 0 min 0 W/m 16,1 km/h (3 Bft) 100,00 %
03.12.2020 08:08 3,8 C 3,3 C 4,5 C 99 % 1003,9 hPa 0,0 l/m 0 min 0 min 0 W/m 12,9 km/h (3 Bft) 100,00 %
03.12.2020 08:10 3,8 C 3,3 C 4,5 C 99 % 1003,8 hPa 0,0 l/m 0 min 0 min 0 W/m 12,9 km/h (3 Bft) 100,00 %
03.12.2020 08:12 3,8 C 3,3 C 4,5 C 99 % 1003,8 hPa 0,0 l/m 0 min 0 min 0 W/m 12,9 km/h (3 Bft) 100,00 %
03.12.2020 08:14 3,8 C 3,3 C 4,5 C 99 % 1003,8 hPa 0,0 l/m 0 min 0 min 0 W/m 12,9 km/h (3 Bft) 100,00 %
03.12.2020 08:16 3,8 C 3,3 C 4,5 C 99 % 1003,7 hPa 0,0 l/m 0 min 0 min 0 W/m 6,4 km/h (2 Bft) 100,00 %
03.12.2020 08:18 3,8 C 3,3 C 4,5 C 99 % 1003,7 hPa 0,0 l/m 0 min 0 min 0 W/m 16,1 km/h (3 Bft) 100,00 %
03.12.2020 08:20 3,8 C 3,3 C 4,5 C 99 % 1003,8 hPa 0,0 l/m 0 min 0 min 0 W/m 12,9 km/h (3 Bft) 97,87 %
03.12.2020 08:22 3,8 C 3,3 C 4,5 C 99 % 1003,7 hPa 0,0 l/m 0 min 0 min 0 W/m 12,9 km/h (3 Bft) 97,83 %
03.12.2020 08:24 3,8 C 3,3 C 4,5 C 99 % 1003,6 hPa 0,0 l/m 0 min 0 min 0 W/m 3,2 km/h (1 Bft) 97,87 %
03.12.2020 08:26 3,8 C 3,3 C 4,5 C 99 % 1003,6 hPa 0,0 l/m 0 min 0 min 0 W/m 12,9 km/h (3 Bft) 100,00 %
03.12.2020 08:28 3,8 C 3,3 C 4,5 C 99 % 1003,6 hPa 0,0 l/m 0 min 0 min 0 W/m 6,4 km/h (2 Bft) 97,87 %
03.12.2020 08:30 3,8 C 3,3 C 4,5 C 99 % 1003,6 hPa 0,0 l/m 0 min 0 min 0 W/m 3,2 km/h (1 Bft) 100,00 %
03.12.2020 08:32 3,8 C 3,3 C 4,5 C 99 % 1003,5 hPa 0,0 l/m 0 min 0 min 0 W/m 6,4 km/h (2 Bft) 97,87 %
03.12.2020 08:34 3,8 C 3,3 C 4,5 C 99 % 1003,5 hPa 0,0 l/m 0 min 0 min 0 W/m 16,1 km/h (3 Bft) 100,00 %
03.12.2020 08:36 3,8 C 3,3 C 4,5 C 99 % 1003,5 hPa 0,0 l/m 0 min 0 min 0 W/m 6,4 km/h (2 Bft) 100,00 %
03.12.2020 08:38 3,8 C 3,3 C 4,5 C 99 % 1003,5 hPa 0,0 l/m 0 min 0 min 0 W/m 6,4 km/h (2 Bft) 97,87 %
03.12.2020 08:40 3,8 C 3,3 C 4,5 C 99 % 1003,5 hPa 0,0 l/m 0 min 0 min 0 W/m 3,2 km/h (1 Bft) 100,00 %
03.12.2020 08:42 3,8 C 3,3 C 4,5 C 99 % 1003,5 hPa 0,0 l/m 0 min 0 min 0 W/m 6,4 km/h (2 Bft) 98,00 %
03.12.2020 08:44 3,8 C 3,3 C 4,5 C 99 % 1003,5 hPa 0,0 l/m 0 min 0 min 0 W/m 19,3 km/h (3 Bft) 100,00 %
03.12.2020 08:46 3,8 C 3,3 C 4,5 C 99 % 1003,5 hPa 0,0 l/m 0 min 0 min 0 W/m 16,1 km/h (3 Bft) 100,00 %
03.12.2020 08:48 3,8 C 3,3 C 4,5 C 99 % 1003,4 hPa 0,0 l/m 0 min 0 min 2 W/m 6,4 km/h (2 Bft) 100,00 %
03.12.2020 08:50 3,8 C 3,3 C 4,5 C 99 % 1003,4 hPa 0,0 l/m 0 min 0 min 5 W/m 16,1 km/h (3 Bft) 97,87 %
03.12.2020 08:52 3,8 C 3,3 C 4,5 C 99 % 1003,4 hPa 0,0 l/m 0 min 0 min 5 W/m 22,5 km/h (4 Bft) 97,83 %
03.12.2020 08:54 3,8 C 3,3 C 4,5 C 99 % 1003,4 hPa 0,0 l/m 0 min 0 min 5 W/m 12,9 km/h (3 Bft) 100,00 %
03.12.2020 08:56 3,8 C 3,3 C 4,5 C 99 % 1003,3 hPa 0,0 l/m 0 min 0 min 5 W/m 12,9 km/h (3 Bft) 100,00 %
03.12.2020 08:58 3,8 C 3,3 C 4,5 C 99 % 1003,3 hPa 0,0 l/m 0 min 0 min 5 W/m 12,9 km/h (3 Bft) 100,00 %
03.12.2020 09:00 3,8 C 3,3 C 4,5 C 99 % 1003,3 hPa 0,0 l/m 0 min 0 min 7 W/m 19,3 km/h (3 Bft) 100,00 %
03.12.2020 09:02 3,8 C 3,3 C 4,5 C 99 % 1003,3 hPa 0,0 l/m 0 min 0 min 7 W/m 16,1 km/h (3 Bft) 100,00 %
03.12.2020 09:04 3,8 C 3,3 C 4,5 C 99 % 1003,3 hPa 0,0 l/m 0 min 0 min 5 W/m 16,1 km/h (3 Bft) 100,00 %
03.12.2020 09:06 3,8 C 3,3 C 4,5 C 99 % 1003,2 hPa 0,0 l/m 0 min 0 min 5 W/m 16,1 km/h (3 Bft) 100,00 %
03.12.2020 09:08 3,8 C 2,8 C 4,5 C 99 % 1003,2 hPa 0,0 l/m 0 min 2 min 7 W/m 12,9 km/h (3 Bft) 100,00 %
03.12.2020 09:10 3,8 C 2,8 C 4,5 C 99 % 1003,2 hPa 0,0 l/m 0 min 2 min 7 W/m 16,1 km/h (3 Bft) 97,87 %
03.12.2020 09:12 3,7 C 2,8 C 4,5 C 99 % 1003,1 hPa 0,0 l/m 0 min 2 min 7 W/m 12,9 km/h (3 Bft) 97,87 %
03.12.2020 09:14 3,7 C 2,8 C 4,5 C 99 % 1003,2 hPa 0,2 l/m 0 min 2 min 7 W/m 12,9 km/h (3 Bft) 97,87 %
03.12.2020 09:16 3,7 C 2,8 C 4,5 C 99 % 1003,1 hPa 0,0 l/m 0 min 2 min 9 W/m 19,3 km/h (3 Bft) 93,48 %
03.12.2020 09:18 3,7 C 2,8 C 4,5 C 99 % 1003,1 hPa 0,0 l/m 0 min 2 min 9 W/m 12,9 km/h (3 Bft) 97,87 %
03.12.2020 09:20 3,7 C 2,8 C 4,5 C 99 % 1003,0 hPa 0,0 l/m 0 min 2 min 9 W/m 19,3 km/h (3 Bft) 97,87 %
03.12.2020 09:22 3,7 C 2,8 C 4,5 C 99 % 1003,1 hPa 0,0 l/m 0 min 2 min 9 W/m 19,3 km/h (3 Bft) 95,74 %
03.12.2020 09:24 3,7 C 2,8 C 4,5 C 99 % 1003,1 hPa 0,0 l/m 0 min 2 min 9 W/m 12,9 km/h (3 Bft) 95,74 %
03.12.2020 09:26 3,7 C 2,8 C 4,5 C 99 % 1003,1 hPa 0,0 l/m 0 min 2 min 9 W/m 16,1 km/h (3 Bft) 95,74 %
03.12.2020 09:28 3,7 C 2,8 C 4,5 C 99 % 1003,0 hPa 0,0 l/m 0 min 0 min 9 W/m 19,3 km/h (3 Bft) 95,65 %
03.12.2020 09:30 3,7 C 2,8 C 4,5 C 99 % 1002,9 hPa 0,0 l/m 0 min 0 min 9 W/m 19,3 km/h (3 Bft) 97,87 %
03.12.2020 09:32 3,7 C 2,8 C 4,5 C 99 % 1002,9 hPa 0,0 l/m 0 min 2 min 10 W/m 19,3 km/h (3 Bft) 95,74 %
03.12.2020 09:34 3,7 C 2,8 C 4,5 C 99 % 1002,8 hPa 0,0 l/m 0 min 2 min 11 W/m 19,3 km/h (3 Bft) 97,87 %
03.12.2020 09:36 3,7 C 2,8 C 4,5 C 99 % 1002,8 hPa 0,0 l/m 0 min 2 min 11 W/m 19,3 km/h (3 Bft) 93,62 %
03.12.2020 09:38 3,7 C 2,8 C 4,5 C 99 % 1002,8 hPa 0,0 l/m 0 min 2 min 12 W/m 16,1 km/h (3 Bft) 91,30 %
03.12.2020 09:40 3,7 C 2,8 C 4,5 C 99 % 1002,7 hPa 0,0 l/m 0 min 0 min 12 W/m 6,4 km/h (2 Bft) 97,87 %
03.12.2020 09:42 3,7 C 2,8 C 4,5 C 99 % 1002,7 hPa 0,0 l/m 0 min 0 min 14 W/m 19,3 km/h (3 Bft) 95,74 %
03.12.2020 09:44 3,7 C 2,8 C 4,5 C 99 % 1002,6 hPa 0,0 l/m 0 min 0 min 14 W/m 19,3 km/h (3 Bft) 95,74 %
03.12.2020 09:46 3,7 C 3,3 C 4,5 C 99 % 1002,6 hPa 0,0 l/m 0 min 2 min 14 W/m 12,9 km/h (3 Bft) 93,62 %
03.12.2020 09:48 3,7 C 3,3 C 4,5 C 99 % 1002,6 hPa 0,0 l/m 0 min 2 min 15 W/m 16,1 km/h (3 Bft) 97,87 %
03.12.2020 09:50 3,7 C 2,8 C 4,5 C 99 % 1002,6 hPa 0,0 l/m 0 min 2 min 16 W/m 16,1 km/h (3 Bft) 93,48 %
03.12.2020 09:52 3,7 C 2,8 C 4,5 C 99 % 1002,5 hPa 0,0 l/m 0 min 2 min 17 W/m 22,5 km/h (4 Bft) 95,74 %
03.12.2020 09:54 3,7 C 2,8 C 4,5 C 99 % 1002,5 hPa 0,0 l/m 0 min 2 min 18 W/m 22,5 km/h (4 Bft) 93,62 %
03.12.2020 09:56 3,7 C 2,8 C 4,5 C 99 % 1002,5 hPa 0,0 l/m 0 min 2 min 19 W/m 12,9 km/h (3 Bft) 93,62 %
03.12.2020 09:58 3,7 C 2,8 C 4,5 C 99 % 1002,5 hPa 0,0 l/m 0 min 2 min 19 W/m 16,1 km/h (3 Bft) 97,87 %
03.12.2020 10:00 3,7 C 2,8 C 4,5 C 99 % 1002,4 hPa 0,0 l/m 0 min 2 min 20 W/m 19,3 km/h (3 Bft) 95,74 %
03.12.2020 10:02 3,7 C 2,8 C 4,5 C 99 % 1002,4 hPa 0,0 l/m 0 min 2 min 21 W/m 16,1 km/h (3 Bft) 95,65 %
03.12.2020 10:04 3,7 C 3,3 C 4,5 C 99 % 1002,3 hPa 0,0 l/m 0 min 2 min 21 W/m 12,9 km/h (3 Bft) 97,87 %
03.12.2020 10:06 3,8 C 3,3 C 4,5 C 99 % 1002,3 hPa 0,0 l/m 0 min 2 min 21 W/m 16,1 km/h (3 Bft) 97,87 %
03.12.2020 10:08 3,8 C 2,8 C 4,5 C 99 % 1002,4 hPa 0,0 l/m 0 min 2 min 21 W/m 19,3 km/h (3 Bft) 95,74 %
03.12.2020 10:10 3,8 C 2,8 C 4,5 C 99 % 1002,4 hPa 0,0 l/m 0 min 2 min 23 W/m 16,1 km/h (3 Bft) 97,87 %
03.12.2020 10:12 3,8 C 3,3 C 4,5 C 99 % 1002,3 hPa 0,0 l/m 0 min 2 min 23 W/m 12,9 km/h (3 Bft) 97,87 %
03.12.2020 10:14 3,8 C 3,3 C 4,5 C 99 % 1002,2 hPa 0,0 l/m 0 min 2 min 25 W/m 16,1 km/h (3 Bft) 93,48 %
03.12.2020 10:16 3,8 C 2,8 C 4,5 C 99 % 1002,3 hPa 0,0 l/m 0 min 2 min 25 W/m 22,5 km/h (4 Bft) 97,87 %
03.12.2020 10:18 3,8 C 2,8 C 4,5 C 99 % 1002,2 hPa 0,0 l/m 0 min 2 min 26 W/m 19,3 km/h (3 Bft) 95,74 %
03.12.2020 10:20 3,8 C 2,8 C 4,5 C 99 % 1002,2 hPa 0,2 l/m 0 min 2 min 28 W/m 16,1 km/h (3 Bft) 93,62 %
03.12.2020 10:22 3,8 C 2,8 C 4,5 C 99 % 1002,2 hPa 0,0 l/m 0 min 2 min 28 W/m 12,9 km/h (3 Bft) 97,87 %
03.12.2020 10:24 3,8 C 2,8 C 4,5 C 99 % 1002,2 hPa 0,0 l/m 0 min 2 min 26 W/m 16,1 km/h (3 Bft) 97,87 %
03.12.2020 10:26 3,8 C 2,8 C 4,5 C 99 % 1002,1 hPa 0,0 l/m 0 min 2 min 26 W/m 19,3 km/h (3 Bft) 97,83 %
03.12.2020 10:28 3,8 C 2,8 C 4,5 C 99 % 1002,1 hPa 0,0 l/m 0 min 0 min 27 W/m 12,9 km/h (3 Bft) 95,74 %
03.12.2020 10:30 3,8 C 2,8 C 4,5 C 99 % 1002,0 hPa 0,0 l/m 0 min 2 min 29 W/m 16,1 km/h (3 Bft) 95,74 %
03.12.2020 10:32 3,8 C 2,8 C 4,5 C 99 % 1001,9 hPa 0,0 l/m 0 min 2 min 35 W/m 16,1 km/h (3 Bft) 97,87 %
03.12.2020 10:34 3,8 C 2,8 C 4,5 C 99 % 1001,8 hPa 0,0 l/m 0 min 2 min 43 W/m 19,3 km/h (3 Bft) 97,87 %
03.12.2020 10:36 3,8 C 3,3 C 4,5 C 99 % 1001,8 hPa 0,0 l/m 0 min 2 min 51 W/m 19,3 km/h (3 Bft) 91,49 %
03.12.2020 10:38 3,8 C 3,3 C 4,5 C 99 % 1001,8 hPa 0,0 l/m 0 min 0 min 54 W/m 16,1 km/h (3 Bft) 55,00 %
03.12.2020 10:40 3,8 C 3,3 C 4,5 C 99 % 1001,8 hPa 0,0 l/m 0 min 2 min 56 W/m 19,3 km/h (3 Bft) 97,87 %
03.12.2020 10:42 3,8 C 3,3 C 4,5 C 99 % 1001,8 hPa 0,0 l/m 0 min 0 min 53 W/m 19,3 km/h (3 Bft) 97,87 %
03.12.2020 10:44 3,8 C 3,3 C 4,5 C 99 % 1001,8 hPa 0,0 l/m 0 min 0 min 49 W/m 12,9 km/h (3 Bft) 97,87 %
03.12.2020 10:46 3,8 C 3,3 C 4,5 C 99 % 1001,8 hPa 0,0 l/m 0 min 0 min 40 W/m 12,9 km/h (3 Bft) 97,87 %
03.12.2020 10:48 3,8 C 3,3 C 4,5 C 99 % 1001,8 hPa 0,0 l/m 0 min 0 min 33 W/m 16,1 km/h (3 Bft) 97,83 %
03.12.2020 10:50 3,8 C 3,3 C 4,5 C 99 % 1001,8 hPa 0,0 l/m 0 min 0 min 32 W/m 16,1 km/h (3 Bft) 97,87 %
03.12.2020 10:52 3,8 C 3,3 C 4,5 C 99 % 1001,7 hPa 0,0 l/m 0 min 0 min 34 W/m 16,1 km/h (3 Bft) 95,74 %
03.12.2020 10:54 3,8 C 3,3 C 4,5 C 99 % 1001,7 hPa 0,0 l/m 0 min 2 min 35 W/m 16,1 km/h (3 Bft) 97,87 %
03.12.2020 10:56 3,8 C 3,3 C 4,5 C 99 % 1001,6 hPa 0,0 l/m 0 min 0 min 35 W/m 12,9 km/h (3 Bft) 97,87 %
03.12.2020 10:58 3,8 C 3,3 C 4,5 C 99 % 1001,7 hPa 0,0 l/m 0 min 0 min 32 W/m 16,1 km/h (3 Bft) 97,87 %
03.12.2020 11:00 3,8 C 2,8 C 4,5 C 99 % 1001,7 hPa 0,0 l/m 0 min 0 min 27 W/m 12,9 km/h (3 Bft) 95,65 %
03.12.2020 11:02 3,8 C 2,8 C 4,5 C 99 % 1001,6 hPa 0,0 l/m 0 min 0 min 26 W/m 22,5 km/h (4 Bft) 97,87 %
03.12.2020 11:04 3,8 C 2,8 C 4,5 C 99 % 1001,5 hPa 0,0 l/m 0 min 0 min 29 W/m 19,3 km/h (3 Bft) 97,87 %
03.12.2020 11:06 3,8 C 2,8 C 4,5 C 99 % 1001,5 hPa 0,0 l/m 0 min 2 min 32 W/m 22,5 km/h (4 Bft) 97,87 %
03.12.2020 11:08 3,8 C 2,8 C 4,5 C 98 % 1001,5 hPa 0,0 l/m 0 min 0 min 30 W/m 12,9 km/h (3 Bft) 95,74 %
03.12.2020 11:10 3,8 C 2,8 C 4,5 C 98 % 1001,5 hPa 0,0 l/m 0 min 0 min 26 W/m 12,9 km/h (3 Bft) 97,87 %
03.12.2020 11:12 3,8 C 2,8 C 4,5 C 98 % 1001,4 hPa 0,0 l/m 0 min 2 min 22 W/m 19,3 km/h (3 Bft) 95,65 %
03.12.2020 11:14 3,8 C 2,8 C 4,5 C 98 % 1001,4 hPa 0,0 l/m 0 min 0 min 23 W/m 22,5 km/h (4 Bft) 97,87 %
03.12.2020 11:16 3,8 C 2,8 C 4,5 C 98 % 1001,4 hPa 0,0 l/m 0 min 0 min 28 W/m 16,1 km/h (3 Bft) 97,87 %
03.12.2020 11:18 3,8 C 3,3 C 4,5 C 98 % 1001,3 hPa 0,0 l/m 0 min 2 min 32 W/m 16,1 km/h (3 Bft) 97,87 %
03.12.2020 11:20 3,8 C 2,8 C 4,5 C 98 % 1001,3 hPa 0,2 l/m 0 min 2 min 36 W/m 22,5 km/h (4 Bft) 97,87 %
03.12.2020 11:22 3,8 C 3,3 C 4,5 C 98 % 1001,2 hPa 0,0 l/m 0 min 2 min 40 W/m 19,3 km/h (3 Bft) 95,74 %
03.12.2020 11:24 3,8 C 3,3 C 4,5 C 98 % 1001,1 hPa 0,0 l/m 0 min 2 min 40 W/m 12,9 km/h (3 Bft) 97,83 %
03.12.2020 11:26 3,8 C 3,3 C 4,5 C 98 % 1001,0 hPa 0,0 l/m 0 min 0 min 41 W/m 16,1 km/h (3 Bft) 97,87 %
03.12.2020 11:28 3,9 C 3,3 C 4,5 C 98 % 1000,9 hPa 0,0 l/m 0 min 0 min 46 W/m 16,1 km/h (3 Bft) 97,87 %
03.12.2020 11:30 3,9 C 3,3 C 4,5 C 98 % 1000,8 hPa 0,0 l/m 0 min 0 min 46 W/m 22,5 km/h (4 Bft) 100,00 %
03.12.2020 11:32 3,9 C 3,3 C 4,5 C 98 % 1000,8 hPa 0,0 l/m 0 min 2 min 44 W/m 12,9 km/h (3 Bft) 97,14 %
03.12.2020 11:34 3,9 C 3,3 C 5,0 C 98 % 1000,7 hPa 0,0 l/m 0 min 0 min 43 W/m 19,3 km/h (3 Bft) 97,87 %
03.12.2020 11:36 3,9 C 3,3 C 5,0 C 98 % 1000,7 hPa 0,0 l/m 0 min 0 min 44 W/m 16,1 km/h (3 Bft) 97,87 %
03.12.2020 11:38 3,9 C 3,3 C 5,0 C 98 % 1000,6 hPa 0,0 l/m 0 min 0 min 50 W/m 22,5 km/h (4 Bft) 98,28 %
03.12.2020 11:40 3,9 C 3,3 C 5,0 C 98 % 1000,5 hPa 0,0 l/m 0 min 0 min 59 W/m 16,1 km/h (3 Bft) 97,14 %
03.12.2020 11:42 3,9 C 3,3 C 5,0 C 98 % 1000,4 hPa 0,0 l/m 0 min 0 min 67 W/m 19,3 km/h (3 Bft) 97,87 %
03.12.2020 11:44 3,9 C 3,3 C 5,0 C 98 % 1000,3 hPa 0,0 l/m 0 min 0 min 62 W/m 12,9 km/h (3 Bft) 97,87 %
03.12.2020 11:46 3,9 C 3,3 C 5,0 C 98 % 1000,3 hPa 0,0 l/m 0 min 0 min 57 W/m 19,3 km/h (3 Bft) 95,74 %
03.12.2020 11:48 4,0 C 3,3 C 5,0 C 98 % 1000,4 hPa 0,0 l/m 0 min 0 min 51 W/m 12,9 km/h (3 Bft) 98,15 %
03.12.2020 11:50 4,0 C 3,3 C 5,0 C 98 % 1000,4 hPa 0,0 l/m 0 min 0 min 53 W/m 12,9 km/h (3 Bft) 95,92 %
03.12.2020 11:52 4,0 C 3,3 C 5,0 C 98 % 1000,3 hPa 0,0 l/m 0 min 0 min 55 W/m 12,9 km/h (3 Bft) 95,92 %
03.12.2020 11:54 4,0 C 3,3 C 5,0 C 98 % 1000,2 hPa 0,0 l/m 0 min 0 min 53 W/m 22,5 km/h (4 Bft) 97,87 %
03.12.2020 11:56 4,0 C 3,3 C 5,0 C 98 % 1000,2 hPa 0,0 l/m 0 min 0 min 46 W/m 16,1 km/h (3 Bft) 95,74 %
03.12.2020 11:58 4,0 C 3,3 C 5,0 C 98 % 1000,3 hPa 0,0 l/m 0 min 0 min 38 W/m 9,7 km/h (2 Bft) 100,00 %
03.12.2020 12:00 4,0 C 3,3 C 5,0 C 98 % 1000,2 hPa 0,0 l/m 0 min 0 min 35 W/m 16,1 km/h (3 Bft) 96,00 %
03.12.2020 12:02 4,0 C 3,3 C 5,0 C 98 % 1000,2 hPa 0,0 l/m 0 min 0 min 30 W/m 22,5 km/h (4 Bft) 95,83 %
03.12.2020 12:04 4,0 C 3,3 C 5,0 C 98 % 1000,2 hPa 0,0 l/m 0 min 0 min 31 W/m 19,3 km/h (3 Bft) 95,74 %
03.12.2020 12:07 4,1 C 3,3 C 5,0 C 98 % 1000,0 hPa 0,0 l/m 0 min 0 min 46 W/m 12,9 km/h (3 Bft) 92,54 %
03.12.2020 12:08 4,1 C 3,3 C 5,0 C 98 % 1000,0 hPa 0,0 l/m 0 min 0 min 53 W/m 6,4 km/h (2 Bft) 91,30 %
03.12.2020 12:10 4,1 C 3,3 C 5,0 C 98 % 1000,1 hPa 0,0 l/m 0 min 0 min 52 W/m 19,3 km/h (3 Bft) 93,62 %
03.12.2020 12:12 4,1 C 3,3 C 5,0 C 98 % 1000,0 hPa 0,0 l/m 0 min 0 min 48 W/m 16,1 km/h (3 Bft) 91,49 %
03.12.2020 12:14 4,1 C 3,3 C 5,0 C 98 % 999,9 hPa 0,0 l/m 0 min 0 min 54 W/m 22,5 km/h (4 Bft) 93,48 %
03.12.2020 12:16 4,1 C 3,3 C 5,0 C 98 % 999,9 hPa 0,0 l/m 0 min 0 min 55 W/m 22,5 km/h (4 Bft) 91,49 %
03.12.2020 12:18 4,1 C 3,9 C 5,0 C 98 % 999,8 hPa 0,0 l/m 0 min 0 min 55 W/m 12,9 km/h (3 Bft) 91,49 %
03.12.2020 12:20 4,1 C 3,3 C 5,0 C 98 % 999,8 hPa 0,0 l/m 0 min 0 min 54 W/m 29,0 km/h (5 Bft) 93,62 %
03.12.2020 12:22 4,1 C 3,3 C 5,0 C 98 % 999,7 hPa 0,0 l/m 0 min 0 min 55 W/m 19,3 km/h (3 Bft) 93,62 %
03.12.2020 12:24 4,1 C 3,3 C 5,0 C 98 % 999,7 hPa 0,0 l/m 0 min 0 min 59 W/m 22,5 km/h (4 Bft) 95,74 %
03.12.2020 12:26 4,2 C 3,9 C 5,0 C 98 % 999,6 hPa 0,0 l/m 0 min 0 min 60 W/m 16,1 km/h (3 Bft) 91,30 %
03.12.2020 12:28 4,2 C 3,9 C 5,0 C 98 % 999,5 hPa 0,0 l/m 0 min 0 min 62 W/m 12,9 km/h (3 Bft) 93,62 %
03.12.2020 12:30 4,2 C 3,9 C 5,0 C 98 % 999,5 hPa 0,0 l/m 0 min 0 min 59 W/m 19,3 km/h (3 Bft) 93,62 %
03.12.2020 12:32 4,3 C 3,9 C 5,0 C 98 % 999,4 hPa 0,0 l/m 0 min 0 min 59 W/m 12,9 km/h (3 Bft) 93,62 %
03.12.2020 12:34 4,3 C 3,9 C 5,0 C 98 % 999,4 hPa 0,0 l/m 0 min 0 min 57 W/m 19,3 km/h (3 Bft) 91,49 %
03.12.2020 12:36 4,3 C 3,9 C 5,0 C 98 % 999,4 hPa 0,0 l/m 0 min 0 min 53 W/m 12,9 km/h (3 Bft) 93,62 %
03.12.2020 12:38 4,3 C 3,9 C 5,0 C 98 % 999,4 hPa 0,0 l/m 0 min 0 min 53 W/m 16,1 km/h (3 Bft) 93,48 %
03.12.2020 12:40 4,3 C 3,9 C 5,0 C 98 % 999,3 hPa 0,0 l/m 0 min 0 min 60 W/m 29,0 km/h (5 Bft) 93,62 %
03.12.2020 12:42 4,3 C 3,9 C 5,0 C 98 % 999,3 hPa 0,0 l/m 0 min 0 min 54 W/m 16,1 km/h (3 Bft) 93,62 %
03.12.2020 12:44 4,3 C 3,9 C 5,0 C 98 % 999,2 hPa 0,0 l/m 0 min 0 min 54 W/m 19,3 km/h (3 Bft) 95,74 %
03.12.2020 12:46 4,3 C 3,9 C 5,0 C 98 % 999,2 hPa 0,0 l/m 0 min 0 min 50 W/m 16,1 km/h (3 Bft) 91,49 %
03.12.2020 12:48 4,3 C 3,9 C 5,0 C 98 % 999,2 hPa 0,0 l/m 0 min 0 min 42 W/m 19,3 km/h (3 Bft) 95,74 %
03.12.2020 12:50 4,3 C 3,9 C 5,0 C 98 % 999,2 hPa 0,0 l/m 0 min 0 min 37 W/m 19,3 km/h (3 Bft) 95,65 %
03.12.2020 12:52 4,3 C 3,9 C 5,0 C 98 % 999,1 hPa 0,0 l/m 0 min 0 min 36 W/m 25,7 km/h (4 Bft) 95,74 %
03.12.2020 12:54 4,3 C 3,9 C 5,0 C 98 % 999,1 hPa 0,0 l/m 0 min 0 min 38 W/m 19,3 km/h (3 Bft) 97,87 %
03.12.2020 12:56 4,4 C 3,9 C 5,0 C 98 % 999,0 hPa 0,0 l/m 0 min 0 min 37 W/m 16,1 km/h (3 Bft) 97,87 %
03.12.2020 12:58 4,4 C 3,9 C 5,0 C 98 % 999,0 hPa 0,0 l/m 0 min 0 min 33 W/m 16,1 km/h (3 Bft) 97,87 %
03.12.2020 13:00 4,4 C 3,9 C 5,0 C 98 % 999,0 hPa 0,0 l/m 0 min 0 min 33 W/m 12,9 km/h (3 Bft) 97,83 %
03.12.2020 13:02 4,4 C 3,9 C 5,0 C 98 % 999,0 hPa 0,0 l/m 0 min 0 min 31 W/m 16,1 km/h (3 Bft) 97,87 %
03.12.2020 13:04 4,4 C 3,9 C 5,0 C 98 % 998,8 hPa 0,0 l/m 0 min 0 min 29 W/m 12,9 km/h (3 Bft) 95,74 %
03.12.2020 13:06 4,4 C 3,9 C 5,0 C 98 % 998,8 hPa 0,0 l/m 0 min 0 min 34 W/m 16,1 km/h (3 Bft) 100,00 %
03.12.2020 13:08 4,4 C 3,9 C 5,0 C 98 % 998,8 hPa 0,0 l/m 0 min 0 min 35 W/m 22,5 km/h (4 Bft) 97,87 %
03.12.2020 13:10 4,4 C 3,9 C 5,0 C 98 % 998,6 hPa 0,0 l/m 0 min 0 min 39 W/m 16,1 km/h (3 Bft) 95,74 %
03.12.2020 13:12 4,4 C 3,9 C 5,6 C 98 % 998,6 hPa 0,0 l/m 0 min 0 min 39 W/m 29,0 km/h (5 Bft) 97,83 %
03.12.2020 13:14 4,4 C 3,9 C 5,6 C 98 % 998,5 hPa 0,0 l/m 0 min 0 min 40 W/m 16,1 km/h (3 Bft) 97,87 %
03.12.2020 13:16 4,4 C 3,9 C 5,6 C 98 % 998,5 hPa 0,0 l/m 0 min 0 min 45 W/m 16,1 km/h (3 Bft) 97,87 %
03.12.2020 13:18 4,5 C 3,9 C 5,6 C 98 % 998,5 hPa 0,0 l/m 0 min 0 min 45 W/m 16,1 km/h (3 Bft) 97,87 %
03.12.2020 13:20 4,5 C 3,9 C 5,6 C 98 % 998,4 hPa 0,0 l/m 0 min 0 min 47 W/m 25,7 km/h (4 Bft) 97,87 %
03.12.2020 13:22 4,5 C 3,9 C 5,6 C 98 % 998,4 hPa 0,0 l/m 0 min 0 min 45 W/m 12,9 km/h (3 Bft) 95,74 %
03.12.2020 13:24 4,5 C 4,4 C 5,6 C 98 % 998,3 hPa 0,0 l/m 0 min 0 min 43 W/m 19,3 km/h (3 Bft) 97,83 %
03.12.2020 13:26 4,5 C 4,4 C 5,6 C 98 % 998,2 hPa 0,0 l/m 0 min 0 min 42 W/m 16,1 km/h (3 Bft) 97,87 %
03.12.2020 13:28 4,5 C 4,4 C 5,6 C 98 % 998,2 hPa 0,0 l/m 0 min 0 min 36 W/m 16,1 km/h (3 Bft) 97,87 %
03.12.2020 13:30 4,6 C 4,4 C 5,6 C 97 % 998,1 hPa 0,0 l/m 0 min 0 min 36 W/m 19,3 km/h (3 Bft) 97,87 %
03.12.2020 13:32 4,6 C 4,4 C 5,6 C 97 % 998,1 hPa 0,0 l/m 0 min 0 min 44 W/m 16,1 km/h (3 Bft) 97,92 %
03.12.2020 13:34 4,6 C 4,4 C 5,6 C 97 % 998,0 hPa 0,0 l/m 0 min 0 min 49 W/m 16,1 km/h (3 Bft) 95,74 %
03.12.2020 13:36 4,6 C 4,4 C 5,6 C 97 % 997,9 hPa 0,0 l/m 0 min 0 min 55 W/m 12,9 km/h (3 Bft) 95,65 %
03.12.2020 13:38 4,6 C 4,4 C 5,6 C 97 % 997,9 hPa 0,0 l/m 0 min 0 min 52 W/m 6,4 km/h (2 Bft) 97,87 %
03.12.2020 13:40 4,6 C 4,4 C 5,6 C 97 % 997,8 hPa 0,0 l/m 0 min 0 min 49 W/m 6,4 km/h (2 Bft) 95,74 %
03.12.2020 13:42 4,7 C 4,4 C 5,6 C 97 % 997,7 hPa 0,0 l/m 0 min 0 min 52 W/m 12,9 km/h (3 Bft) 97,78 %
03.12.2020 13:44 4,8 C 4,4 C 5,6 C 97 % 997,7 hPa 0,0 l/m 0 min 0 min 54 W/m 19,3 km/h (3 Bft) 97,96 %
03.12.2020 13:46 4,8 C 4,4 C 5,6 C 97 % 997,6 hPa 0,0 l/m 0 min 0 min 54 W/m 25,7 km/h (4 Bft) 97,67 %
03.12.2020 13:48 4,8 C 4,4 C 5,6 C 97 % 997,6 hPa 0,0 l/m 0 min 0 min 53 W/m 19,3 km/h (3 Bft) 97,87 %
03.12.2020 13:50 4,8 C 4,4 C 5,6 C 97 % 997,6 hPa 0,0 l/m 0 min 0 min 59 W/m 16,1 km/h (3 Bft) 95,65 %
03.12.2020 13:52 4,8 C 4,4 C 5,6 C 97 % 997,5 hPa 0,0 l/m 0 min 0 min 61 W/m 19,3 km/h (3 Bft) 98,08 %
03.12.2020 13:54 4,9 C 4,4 C 5,6 C 97 % 997,5 hPa 0,0 l/m 0 min 0 min 63 W/m 16,1 km/h (3 Bft) 97,96 %
03.12.2020 13:56 4,9 C 4,4 C 5,6 C 97 % 997,5 hPa 0,0 l/m 0 min 0 min 57 W/m 19,3 km/h (3 Bft) 97,87 %
03.12.2020 13:58 4,9 C 4,4 C 5,6 C 97 % 997,4 hPa 0,0 l/m 0 min 0 min 51 W/m 25,7 km/h (4 Bft) 97,62 %
03.12.2020 14:00 4,9 C 4,4 C 5,6 C 97 % 997,5 hPa 0,0 l/m 0 min 0 min 47 W/m 19,3 km/h (3 Bft) 97,96 %
03.12.2020 14:02 4,9 C 4,4 C 5,6 C 96 % 997,5 hPa 0,0 l/m 0 min 0 min 46 W/m 16,1 km/h (3 Bft) 98,00 %
03.12.2020 14:04 5,0 C 4,4 C 5,6 C 96 % 997,4 hPa 0,0 l/m 0 min 0 min 43 W/m 19,3 km/h (3 Bft) 97,87 %
03.12.2020 14:06 5,0 C 4,4 C 5,6 C 96 % 997,4 hPa 0,0 l/m 0 min 0 min 44 W/m 22,5 km/h (4 Bft) 97,56 %
03.12.2020 14:08 5,0 C 4,4 C 5,6 C 96 % 997,4 hPa 0,0 l/m 0 min 0 min 40 W/m 12,9 km/h (3 Bft) 98,00 %
03.12.2020 14:10 5,0 C 5,0 C 5,6 C 96 % 997,4 hPa 0,0 l/m 0 min 0 min 39 W/m 12,9 km/h (3 Bft) 97,87 %
03.12.2020 14:12 5,0 C 5,0 C 5,6 C 96 % 997,3 hPa 0,0 l/m 0 min 0 min 40 W/m 19,3 km/h (3 Bft) 93,48 %
03.12.2020 14:14 5,1 C 5,0 C 5,6 C 96 % 997,3 hPa 0,0 l/m 0 min 0 min 40 W/m 19,3 km/h (3 Bft) 97,87 %
03.12.2020 14:16 5,1 C 5,0 C 5,6 C 96 % 997,3 hPa 0,0 l/m 0 min 0 min 42 W/m 22,5 km/h (4 Bft) 97,87 %
03.12.2020 14:18 5,1 C 5,0 C 5,6 C 95 % 997,2 hPa 0,0 l/m 0 min 0 min 39 W/m 16,1 km/h (3 Bft) 97,87 %
03.12.2020 14:20 5,1 C 5,0 C 5,6 C 95 % 997,2 hPa 0,0 l/m 0 min 0 min 37 W/m 22,5 km/h (4 Bft) 95,74 %
03.12.2020 14:22 5,1 C 5,0 C 5,6 C 95 % 997,1 hPa 0,0 l/m 0 min 0 min 40 W/m 19,3 km/h (3 Bft) 95,74 %
03.12.2020 14:24 5,1 C 5,0 C 5,6 C 95 % 997,0 hPa 0,0 l/m 0 min 0 min 46 W/m 12,9 km/h (3 Bft) 97,83 %
03.12.2020 14:26 5,1 C 4,4 C 5,6 C 95 % 997,0 hPa 0,0 l/m 0 min 2 min 51 W/m 16,1 km/h (3 Bft) 97,87 %
03.12.2020 14:28 5,1 C 4,4 C 5,6 C 95 % 996,9 hPa 0,0 l/m 0 min 2 min 53 W/m 22,5 km/h (4 Bft) 95,74 %
03.12.2020 14:30 5,2 C 4,4 C 5,6 C 95 % 996,9 hPa 0,0 l/m 0 min 2 min 49 W/m 22,5 km/h (4 Bft) 95,74 %
03.12.2020 14:32 5,2 C 3,9 C 5,6 C 95 % 996,8 hPa 0,0 l/m 0 min 2 min 43 W/m 29,0 km/h (5 Bft) 95,74 %
03.12.2020 14:34 5,2 C 3,9 C 5,6 C 95 % 996,8 hPa 0,0 l/m 0 min 2 min 41 W/m 19,3 km/h (3 Bft) 95,65 %
03.12.2020 14:36 5,2 C 3,9 C 5,6 C 95 % 996,7 hPa 0,0 l/m 0 min 2 min 38 W/m 19,3 km/h (3 Bft) 95,74 %
03.12.2020 14:38 5,2 C 3,9 C 5,6 C 94 % 996,7 hPa 0,0 l/m 0 min 2 min 39 W/m 32,2 km/h (5 Bft) 93,62 %
03.12.2020 14:40 5,2 C 3,9 C 5,6 C 94 % 996,6 hPa 0,0 l/m 0 min 2 min 35 W/m 16,1 km/h (3 Bft) 93,62 %
03.12.2020 14:42 5,2 C 3,9 C 5,6 C 94 % 996,6 hPa 0,0 l/m 0 min 2 min 33 W/m 16,1 km/h (3 Bft) 95,74 %
03.12.2020 14:44 5,3 C 3,9 C 5,6 C 94 % 996,6 hPa 0,0 l/m 0 min 2 min 32 W/m 16,1 km/h (3 Bft) 95,74 %
03.12.2020 14:46 5,3 C 3,9 C 5,6 C 94 % 996,5 hPa 0,0 l/m 0 min 2 min 29 W/m 16,1 km/h (3 Bft) 95,65 %
03.12.2020 14:48 5,2 C 3,9 C 5,6 C 94 % 996,5 hPa 0,0 l/m 0 min 0 min 27 W/m 19,3 km/h (3 Bft) 95,74 %
03.12.2020 14:50 5,2 C 3,9 C 5,6 C 94 % 996,5 hPa 0,0 l/m 0 min 2 min 28 W/m 19,3 km/h (3 Bft) 95,74 %
03.12.2020 14:52 5,2 C 3,9 C 5,6 C 94 % 996,4 hPa 0,0 l/m 0 min 2 min 26 W/m 19,3 km/h (3 Bft) 91,49 %
03.12.2020 14:54 5,2 C 3,9 C 5,6 C 94 % 996,4 hPa 0,0 l/m 0 min 2 min 26 W/m 12,9 km/h (3 Bft) 95,74 %
03.12.2020 14:56 5,2 C 3,9 C 5,6 C 94 % 996,4 hPa 0,0 l/m 0 min 2 min 26 W/m 6,4 km/h (2 Bft) 52,38 %
03.12.2020 14:58 5,2 C 3,9 C 5,6 C 94 % 996,3 hPa 0,0 l/m 0 min 2 min 28 W/m 16,1 km/h (3 Bft) 95,92 %
03.12.2020 15:00 5,2 C 3,9 C 5,6 C 94 % 996,3 hPa 0,0 l/m 0 min 2 min 26 W/m 19,3 km/h (3 Bft) 95,74 %
03.12.2020 15:02 5,2 C 3,9 C 5,6 C 94 % 996,3 hPa 0,2 l/m 0 min 2 min 26 W/m 22,5 km/h (4 Bft) 93,88 %
03.12.2020 15:04 5,2 C 3,9 C 5,6 C 94 % 996,3 hPa 0,0 l/m 0 min 2 min 23 W/m 19,3 km/h (3 Bft) 89,36 %
03.12.2020 15:06 5,1 C 3,9 C 5,6 C 94 % 996,2 hPa 0,0 l/m 0 min 2 min 23 W/m 22,5 km/h (4 Bft) 93,48 %
03.12.2020 15:08 5,1 C 3,9 C 5,6 C 94 % 996,2 hPa 0,0 l/m 0 min 2 min 23 W/m 19,3 km/h (3 Bft) 91,49 %
03.12.2020 15:10 5,1 C 3,9 C 5,0 C 94 % 996,0 hPa 0,0 l/m 0 min 2 min 23 W/m 19,3 km/h (3 Bft) 95,74 %
03.12.2020 15:12 5,1 C 3,9 C 5,6 C 94 % 996,1 hPa 0,0 l/m 0 min 2 min 22 W/m 25,7 km/h (4 Bft) 91,49 %
03.12.2020 15:14 5,1 C 3,9 C 5,0 C 94 % 996,0 hPa 0,0 l/m 0 min 2 min 21 W/m 19,3 km/h (3 Bft) 95,74 %
03.12.2020 15:16 5,1 C 3,9 C 5,0 C 94 % 996,0 hPa 0,0 l/m 0 min 2 min 21 W/m 19,3 km/h (3 Bft) 95,74 %
03.12.2020 15:18 5,1 C 3,9 C 5,0 C 94 % 996,0 hPa 0,0 l/m 0 min 2 min 18 W/m 19,3 km/h (3 Bft) 95,65 %
03.12.2020 15:20 5,0 C 3,9 C 5,0 C 94 % 996,0 hPa 0,0 l/m 0 min 2 min 17 W/m 16,1 km/h (3 Bft) 95,74 %
03.12.2020 15:22 5,0 C 3,9 C 5,0 C 94 % 995,9 hPa 0,0 l/m 0 min 2 min 18 W/m 19,3 km/h (3 Bft) 95,74 %
03.12.2020 15:24 5,0 C 3,9 C 5,0 C 94 % 995,9 hPa 0,0 l/m 0 min 2 min 17 W/m 9,7 km/h (2 Bft) 93,62 %
03.12.2020 15:26 5,0 C 3,9 C 5,0 C 94 % 995,9 hPa 0,0 l/m 0 min 2 min 13 W/m 16,1 km/h (3 Bft) 95,74 %
03.12.2020 15:28 5,0 C 3,9 C 5,0 C 94 % 995,9 hPa 0,0 l/m 0 min 2 min 12 W/m 29,0 km/h (5 Bft) 95,74 %
03.12.2020 15:30 5,0 C 3,9 C 5,0 C 94 % 995,8 hPa 0,0 l/m 0 min 2 min 11 W/m 22,5 km/h (4 Bft) 95,65 %
03.12.2020 15:32 5,0 C 3,9 C 5,0 C 94 % 995,8 hPa 0,0 l/m 0 min 2 min 11 W/m 16,1 km/h (3 Bft) 95,83 %
03.12.2020 15:34 5,0 C 3,9 C 5,0 C 94 % 995,8 hPa 0,0 l/m 0 min 2 min 11 W/m 22,5 km/h (4 Bft) 95,74 %
03.12.2020 15:36 4,9 C 3,3 C 5,0 C 94 % 995,7 hPa 0,0 l/m 0 min 2 min 11 W/m 16,1 km/h (3 Bft) 95,74 %
03.12.2020 15:38 4,9 C 3,3 C 5,0 C 94 % 995,7 hPa 0,2 l/m 0 min 2 min 9 W/m 22,5 km/h (4 Bft) 95,74 %
03.12.2020 15:40 4,9 C 3,3 C 5,0 C 94 % 995,6 hPa 0,0 l/m 0 min 2 min 9 W/m 16,1 km/h (3 Bft) 95,74 %
03.12.2020 15:42 4,9 C 3,3 C 5,0 C 94 % 995,6 hPa 0,0 l/m 0 min 2 min 9 W/m 16,1 km/h (3 Bft) 93,48 %
03.12.2020 15:44 4,9 C 3,3 C 5,0 C 94 % 995,5 hPa 0,0 l/m 0 min 2 min 9 W/m 12,9 km/h (3 Bft) 95,74 %
03.12.2020 15:46 4,9 C 3,3 C 5,0 C 94 % 995,5 hPa 0,0 l/m 0 min 2 min 11 W/m 12,9 km/h (3 Bft) 93,62 %
03.12.2020 15:48 4,9 C 3,3 C 5,0 C 94 % 995,5 hPa 0,0 l/m 0 min 2 min 11 W/m 16,1 km/h (3 Bft) 95,74 %
03.12.2020 15:50 4,9 C 3,3 C 5,0 C 94 % 995,4 hPa 0,0 l/m 0 min 2 min 10 W/m 16,1 km/h (3 Bft) 97,87 %
03.12.2020 15:52 4,8 C 3,3 C 5,0 C 94 % 995,4 hPa 0,0 l/m 0 min 2 min 9 W/m 12,9 km/h (3 Bft) 97,14 %
03.12.2020 15:54 4,8 C 3,3 C 5,0 C 94 % 995,4 hPa 0,0 l/m 0 min 2 min 8 W/m 16,1 km/h (3 Bft) 95,74 %
03.12.2020 15:56 4,8 C 3,3 C 5,0 C 94 % 995,4 hPa 0,0 l/m 0 min 2 min 7 W/m 9,7 km/h (2 Bft) 97,87 %
03.12.2020 15:58 4,8 C 3,3 C 5,0 C 94 % 995,5 hPa 0,0 l/m 0 min 2 min 6 W/m 29,0 km/h (5 Bft) 95,65 %
03.12.2020 16:00 4,8 C 3,3 C 5,0 C 94 % 995,5 hPa 0,0 l/m 0 min 2 min 5 W/m 22,5 km/h (4 Bft) 97,87 %
03.12.2020 16:02 4,8 C 3,3 C 5,0 C 94 % 995,4 hPa 0,0 l/m 0 min 2 min 5 W/m 22,5 km/h (4 Bft) 97,87 %
03.12.2020 16:04 4,8 C 3,3 C 5,0 C 94 % 995,4 hPa 0,0 l/m 0 min 2 min 0 W/m 16,1 km/h (3 Bft) 96,00 %
03.12.2020 16:06 4,8 C 3,3 C 5,0 C 94 % 995,3 hPa 0,0 l/m 0 min 2 min 0 W/m 16,1 km/h (3 Bft) 97,83 %
03.12.2020 16:08 4,8 C 3,3 C 5,0 C 94 % 995,3 hPa 0,0 l/m 0 min 2 min 0 W/m 16,1 km/h (3 Bft) 97,87 %
03.12.2020 16:10 4,8 C 3,3 C 5,0 C 94 % 995,3 hPa 0,0 l/m 0 min 2 min 0 W/m 22,5 km/h (4 Bft) 95,74 %
03.12.2020 16:12 4,8 C 3,3 C 5,0 C 94 % 995,1 hPa 0,0 l/m 0 min 0 min 0 W/m 19,3 km/h (3 Bft) 95,74 %
03.12.2020 16:14 4,8 C 3,3 C 5,0 C 94 % 995,1 hPa 0,0 l/m 0 min 0 min 0 W/m 19,3 km/h (3 Bft) 97,87 %
03.12.2020 16:16 4,8 C 3,3 C 5,0 C 94 % 995,1 hPa 0,0 l/m 0 min 2 min 0 W/m 12,9 km/h (3 Bft) 97,87 %
03.12.2020 16:18 4,7 C 3,3 C 5,0 C 94 % 995,0 hPa 0,0 l/m 0 min 2 min 0 W/m 22,5 km/h (4 Bft) 97,83 %
03.12.2020 16:20 4,7 C 3,3 C 5,0 C 94 % 995,0 hPa 0,0 l/m 0 min 0 min 0 W/m 22,5 km/h (4 Bft) 97,87 %
03.12.2020 16:22 4,6 C 3,3 C 5,0 C 94 % 995,0 hPa 0,0 l/m 0 min 2 min 0 W/m 25,7 km/h (4 Bft) 97,87 %
03.12.2020 16:24 4,6 C 3,3 C 5,0 C 94 % 994,9 hPa 0,0 l/m 0 min 0 min 0 W/m 22,5 km/h (4 Bft) 97,87 %
03.12.2020 16:26 4,6 C 3,3 C 5,0 C 94 % 994,8 hPa 0,0 l/m 0 min 2 min 0 W/m 29,0 km/h (5 Bft) 97,87 %
03.12.2020 16:28 4,6 C 3,3 C 5,0 C 94 % 994,8 hPa 0,0 l/m 0 min 2 min 0 W/m 22,5 km/h (4 Bft) 95,74 %
03.12.2020 16:30 4,6 C 3,3 C 5,0 C 94 % 994,7 hPa 0,0 l/m 0 min 2 min 0 W/m 16,1 km/h (3 Bft) 97,83 %
03.12.2020 16:32 4,6 C 3,3 C 5,0 C 94 % 994,7 hPa 0,2 l/m 0 min 2 min 0 W/m 29,0 km/h (5 Bft) 95,74 %
03.12.2020 16:34 4,6 C 3,3 C 5,0 C 94 % 994,7 hPa 0,0 l/m 0 min 2 min 0 W/m 32,2 km/h (5 Bft) 97,87 %
03.12.2020 16:36 4,6 C 3,3 C 5,0 C 94 % 994,6 hPa 0,0 l/m 0 min 2 min 0 W/m 19,3 km/h (3 Bft) 95,74 %
03.12.2020 16:38 4,6 C 3,3 C 5,0 C 94 % 994,6 hPa 0,0 l/m 0 min 2 min 0 W/m 19,3 km/h (3 Bft) 95,74 %
03.12.2020 16:40 4,6 C 3,3 C 5,0 C 94 % 994,6 hPa 0,0 l/m 0 min 2 min 0 W/m 16,1 km/h (3 Bft) 97,87 %
03.12.2020 16:42 4,6 C 3,3 C 5,0 C 94 % 994,5 hPa 0,0 l/m 0 min 2 min 0 W/m 22,5 km/h (4 Bft) 95,74 %
03.12.2020 16:44 4,5 C 3,3 C 5,0 C 94 % 994,5 hPa 0,0 l/m 0 min 2 min 0 W/m 22,5 km/h (4 Bft) 97,83 %
03.12.2020 16:46 4,5 C 3,3 C 5,0 C 94 % 994,5 hPa 0,0 l/m 0 min 2 min 0 W/m 19,3 km/h (3 Bft) 95,74 %
03.12.2020 16:48 4,5 C 3,3 C 5,0 C 94 % 994,4 hPa 0,2 l/m 0 min 2 min 0 W/m 16,1 km/h (3 Bft) 95,74 %
03.12.2020 16:50 4,5 C 3,3 C 5,0 C 94 % 994,4 hPa 0,0 l/m 0 min 2 min 0 W/m 19,3 km/h (3 Bft) 95,74 %
03.12.2020 16:52 4,5 C 3,3 C 4,5 C 94 % 994,3 hPa 0,0 l/m 0 min 2 min 0 W/m 19,3 km/h (3 Bft) 95,74 %
03.12.2020 16:54 4,5 C 3,3 C 5,0 C 94 % 994,3 hPa 0,0 l/m 0 min 2 min 0 W/m 16,1 km/h (3 Bft) 97,87 %
03.12.2020 16:56 4,5 C 3,3 C 4,5 C 94 % 994,3 hPa 0,0 l/m 0 min 2 min 0 W/m 19,3 km/h (3 Bft) 91,30 %
03.12.2020 16:58 4,5 C 3,3 C 4,5 C 94 % 994,3 hPa 0,0 l/m 0 min 2 min 0 W/m 25,7 km/h (4 Bft) 93,62 %
03.12.2020 17:00 4,5 C 3,3 C 4,5 C 94 % 994,2 hPa 0,0 l/m 0 min 2 min 0 W/m 29,0 km/h (5 Bft) 95,74 %
03.12.2020 17:02 4,5 C 3,3 C 5,0 C 94 % 994,2 hPa 0,0 l/m 0 min 2 min 0 W/m 22,5 km/h (4 Bft) 91,49 %
03.12.2020 17:04 4,4 C 3,3 C 4,5 C 94 % 994,2 hPa 0,0 l/m 0 min 2 min 0 W/m 22,5 km/h (4 Bft) 95,74 %
03.12.2020 17:06 4,5 C 3,3 C 4,5 C 94 % 994,2 hPa 0,0 l/m 0 min 2 min 0 W/m 25,7 km/h (4 Bft) 95,65 %
03.12.2020 17:08 4,4 C 3,3 C 5,0 C 94 % 994,1 hPa 0,0 l/m 0 min 0 min 0 W/m 16,1 km/h (3 Bft) 95,74 %
03.12.2020 17:10 4,5 C 3,3 C 4,5 C 94 % 994,1 hPa 0,0 l/m 0 min 0 min 0 W/m 19,3 km/h (3 Bft) 95,74 %
03.12.2020 17:12 4,4 C 3,3 C 4,5 C 94 % 994,0 hPa 0,0 l/m 0 min 0 min 0 W/m 29,0 km/h (5 Bft) 93,62 %
03.12.2020 17:14 4,4 C 3,3 C 4,5 C 94 % 994,0 hPa 0,0 l/m 0 min 2 min 0 W/m 16,1 km/h (3 Bft) 95,74 %
03.12.2020 17:16 4,4 C 3,3 C 4,5 C 94 % 993,9 hPa 0,0 l/m 0 min 0 min 0 W/m 19,3 km/h (3 Bft) 95,74 %
03.12.2020 17:18 4,4 C 3,3 C 4,5 C 94 % 993,9 hPa 0,0 l/m 0 min 2 min 0 W/m 19,3 km/h (3 Bft) 95,65 %
03.12.2020 17:20 4,4 C 3,3 C 4,5 C 94 % 993,9 hPa 0,0 l/m 0 min 0 min 0 W/m 22,5 km/h (4 Bft) 95,74 %
03.12.2020 17:22 4,4 C 3,3 C 4,5 C 94 % 993,8 hPa 0,0 l/m 0 min 0 min 0 W/m 19,3 km/h (3 Bft) 95,74 %
03.12.2020 17:24 4,4 C 3,3 C 4,5 C 94 % 993,8 hPa 0,0 l/m 0 min 0 min 0 W/m 25,7 km/h (4 Bft) 95,74 %
03.12.2020 17:26 4,4 C 3,3 C 4,5 C 94 % 993,8 hPa 0,0 l/m 0 min 0 min 0 W/m 32,2 km/h (5 Bft) 95,74 %
03.12.2020 17:28 4,4 C 3,3 C 4,5 C 94 % 993,8 hPa 0,0 l/m 0 min 0 min 0 W/m 25,7 km/h (4 Bft) 97,87 %
03.12.2020 17:30 4,4 C 3,3 C 4,5 C 94 % 993,7 hPa 0,0 l/m 0 min 0 min 0 W/m 25,7 km/h (4 Bft) 97,83 %
03.12.2020 17:32 4,4 C 3,3 C 4,5 C 94 % 993,7 hPa 0,0 l/m 0 min 0 min 0 W/m 12,9 km/h (3 Bft) 97,87 %
03.12.2020 17:34 4,4 C 3,3 C 4,5 C 94 % 993,6 hPa 0,0 l/m 0 min 0 min 0 W/m 25,7 km/h (4 Bft) 97,87 %
03.12.2020 17:36 4,4 C 3,3 C 4,5 C 94 % 993,5 hPa 0,0 l/m 0 min 0 min 0 W/m 22,5 km/h (4 Bft) 97,87 %
03.12.2020 17:38 4,4 C 3,3 C 4,5 C 94 % 993,5 hPa 0,0 l/m 0 min 0 min 0 W/m 16,1 km/h (3 Bft) 97,87 %
03.12.2020 17:40 4,4 C 3,3 C 4,5 C 94 % 993,4 hPa 0,0 l/m 0 min 0 min 0 W/m 19,3 km/h (3 Bft) 97,87 %
03.12.2020 17:42 4,4 C 3,3 C 4,5 C 94 % 993,4 hPa 0,0 l/m 0 min 0 min 0 W/m 16,1 km/h (3 Bft) 97,83 %
03.12.2020 17:44 4,4 C 3,3 C 4,5 C 94 % 993,4 hPa 0,0 l/m 0 min 2 min 0 W/m 19,3 km/h (3 Bft) 97,87 %
03.12.2020 17:46 4,4 C 3,3 C 4,5 C 94 % 993,4 hPa 0,0 l/m 0 min 0 min 0 W/m 25,7 km/h (4 Bft) 97,87 %
03.12.2020 17:48 4,4 C 3,3 C 4,5 C 94 % 993,3 hPa 0,0 l/m 0 min 2 min 0 W/m 12,9 km/h (3 Bft) 95,74 %
03.12.2020 17:50 4,4 C 3,3 C 5,0 C 94 % 993,2 hPa 0,0 l/m 0 min 0 min 0 W/m 12,9 km/h (3 Bft) 97,87 %
03.12.2020 17:52 4,4 C 3,3 C 5,0 C 94 % 993,2 hPa 0,0 l/m 0 min 0 min 0 W/m 16,1 km/h (3 Bft) 97,87 %
03.12.2020 17:54 4,4 C 3,3 C 5,0 C 94 % 993,1 hPa 0,0 l/m 0 min 0 min 0 W/m 12,9 km/h (3 Bft) 97,83 %
03.12.2020 17:56 4,4 C 3,3 C 5,0 C 94 % 993,1 hPa 0,0 l/m 0 min 0 min 0 W/m 12,9 km/h (3 Bft) 97,87 %
03.12.2020 17:58 4,4 C 3,3 C 5,0 C 94 % 993,1 hPa 0,0 l/m 0 min 0 min 0 W/m 16,1 km/h (3 Bft) 97,87 %
03.12.2020 18:00 4,4 C 3,3 C 4,5 C 94 % 993,1 hPa 0,0 l/m 0 min 0 min 0 W/m 12,9 km/h (3 Bft) 97,87 %
03.12.2020 18:02 4,4 C 3,3 C 4,5 C 94 % 993,0 hPa 0,0 l/m 0 min 0 min 0 W/m 16,1 km/h (3 Bft) 96,23 %
03.12.2020 18:04 4,4 C 3,3 C 5,0 C 94 % 993,1 hPa 0,0 l/m 0 min 0 min 0 W/m 25,7 km/h (4 Bft) 92,11 %
03.12.2020 18:07 4,4 C 3,3 C 5,0 C 94 % 993,0 hPa 0,0 l/m 0 min 0 min 0 W/m 25,7 km/h (4 Bft) 95,89 %
03.12.2020 18:08 4,4 C 3,3 C 5,0 C 94 % 993,0 hPa 0,0 l/m 0 min 0 min 0 W/m 9,7 km/h (2 Bft) 91,30 %
03.12.2020 18:10 4,4 C 3,3 C 5,0 C 94 % 992,9 hPa 0,0 l/m 0 min 0 min 0 W/m 12,9 km/h (3 Bft) 95,74 %
03.12.2020 18:12 4,4 C 3,3 C 5,0 C 94 % 992,8 hPa 0,0 l/m 0 min 0 min 0 W/m 19,3 km/h (3 Bft) 93,62 %
03.12.2020 18:14 4,4 C 3,3 C 5,0 C 94 % 992,8 hPa 0,0 l/m 0 min 0 min 0 W/m 22,5 km/h (4 Bft) 93,62 %
03.12.2020 18:16 4,4 C 3,3 C 5,0 C 94 % 992,7 hPa 0,0 l/m 0 min 0 min 0 W/m 19,3 km/h (3 Bft) 93,48 %
03.12.2020 18:18 4,4 C 3,3 C 5,0 C 94 % 992,8 hPa 0,0 l/m 0 min 0 min 0 W/m 16,1 km/h (3 Bft) 93,62 %
03.12.2020 18:20 4,4 C 3,3 C 5,0 C 94 % 992,7 hPa 0,0 l/m 0 min 0 min 0 W/m 12,9 km/h (3 Bft) 95,74 %
03.12.2020 18:22 4,4 C 3,3 C 5,0 C 94 % 992,7 hPa 0,0 l/m 0 min 0 min 0 W/m 16,1 km/h (3 Bft) 93,62 %
03.12.2020 18:24 4,4 C 3,3 C 5,0 C 94 % 992,5 hPa 0,0 l/m 0 min 2 min 0 W/m 12,9 km/h (3 Bft) 95,74 %
03.12.2020 18:26 4,4 C 3,3 C 4,5 C 94 % 992,6 hPa 0,0 l/m 0 min 0 min 0 W/m 12,9 km/h (3 Bft) 95,74 %
03.12.2020 18:28 4,4 C 3,3 C 4,5 C 94 % 992,6 hPa 0,0 l/m 0 min 0 min 0 W/m 19,3 km/h (3 Bft) 95,65 %
03.12.2020 18:30 4,4 C 3,3 C 4,5 C 94 % 992,5 hPa 0,0 l/m 0 min 0 min 0 W/m 9,7 km/h (2 Bft) 95,74 %
03.12.2020 18:32 4,4 C 3,3 C 4,5 C 94 % 992,5 hPa 0,0 l/m 0 min 0 min 0 W/m 19,3 km/h (3 Bft) 95,74 %
03.12.2020 18:34 4,4 C 3,3 C 4,5 C 94 % 992,5 hPa 0,0 l/m 0 min 2 min 0 W/m 19,3 km/h (3 Bft) 95,74 %
03.12.2020 18:36 4,3 C 3,3 C 4,5 C 94 % 992,4 hPa 0,0 l/m 0 min 2 min 0 W/m 16,1 km/h (3 Bft) 93,62 %
03.12.2020 18:38 4,3 C 3,3 C 4,5 C 94 % 992,4 hPa 0,0 l/m 0 min 2 min 0 W/m 25,7 km/h (4 Bft) 93,62 %
03.12.2020 18:40 4,3 C 3,3 C 4,5 C 94 % 992,4 hPa 0,0 l/m 0 min 2 min 0 W/m 9,7 km/h (2 Bft) 95,65 %
03.12.2020 18:42 4,3 C 3,3 C 4,5 C 94 % 992,4 hPa 0,0 l/m 0 min 2 min 0 W/m 19,3 km/h (3 Bft) 95,74 %
03.12.2020 18:44 4,3 C 3,3 C 4,5 C 94 % 992,3 hPa 0,0 l/m 0 min 2 min 0 W/m 22,5 km/h (4 Bft) 91,49 %
03.12.2020 18:46 4,3 C 3,3 C 4,5 C 94 % 992,2 hPa 0,0 l/m 0 min 2 min 0 W/m 12,9 km/h (3 Bft) 95,74 %
03.12.2020 18:48 4,3 C 3,3 C 4,5 C 94 % 992,2 hPa 0,0 l/m 0 min 2 min 0 W/m 12,9 km/h (3 Bft) 95,74 %
03.12.2020 18:50 4,3 C 3,3 C 4,5 C 94 % 992,2 hPa 0,0 l/m 0 min 2 min 0 W/m 12,9 km/h (3 Bft) 95,74 %
03.12.2020 18:52 4,3 C 3,3 C 4,5 C 94 % 992,2 hPa 0,0 l/m 0 min 2 min 0 W/m 22,5 km/h (4 Bft) 95,65 %
03.12.2020 18:54 4,3 C 3,3 C 4,5 C 94 % 992,1 hPa 0,0 l/m 0 min 2 min 0 W/m 25,7 km/h (4 Bft) 95,74 %
03.12.2020 18:56 4,3 C 3,3 C 4,5 C 94 % 992,0 hPa 0,0 l/m 0 min 2 min 0 W/m 22,5 km/h (4 Bft) 93,62 %
03.12.2020 18:58 4,3 C 3,3 C 4,5 C 94 % 992,0 hPa 0,0 l/m 0 min 2 min 0 W/m 19,3 km/h (3 Bft) 97,87 %
03.12.2020 19:00 4,2 C 3,3 C 4,5 C 94 % 991,9 hPa 0,2 l/m 0 min 2 min 0 W/m 19,3 km/h (3 Bft) 97,87 %
03.12.2020 19:02 4,3 C 3,3 C 4,5 C 94 % 991,9 hPa 0,0 l/m 0 min 2 min 0 W/m 16,1 km/h (3 Bft) 95,74 %
03.12.2020 19:04 4,3 C 3,3 C 4,5 C 94 % 991,9 hPa 0,0 l/m 0 min 2 min 0 W/m 16,1 km/h (3 Bft) 95,65 %
03.12.2020 19:06 4,3 C 3,3 C 4,5 C 94 % 991,8 hPa 0,0 l/m 0 min 2 min 0 W/m 16,1 km/h (3 Bft) 95,74 %
03.12.2020 19:08 4,3 C 3,3 C 4,5 C 94 % 991,8 hPa 0,0 l/m 0 min 2 min 0 W/m 19,3 km/h (3 Bft) 95,74 %
03.12.2020 19:10 4,3 C 3,3 C 4,5 C 94 % 991,7 hPa 0,0 l/m 0 min 2 min 0 W/m 22,5 km/h (4 Bft) 95,74 %
03.12.2020 19:12 4,3 C 3,3 C 4,5 C 94 % 991,7 hPa 0,0 l/m 0 min 2 min 0 W/m 6,4 km/h (2 Bft) 93,62 %
03.12.2020 19:14 4,3 C 3,3 C 4,5 C 94 % 991,6 hPa 0,0 l/m 0 min 2 min 0 W/m 16,1 km/h (3 Bft) 95,65 %
03.12.2020 19:16 4,3 C 3,3 C 4,5 C 94 % 991,6 hPa 0,0 l/m 0 min 2 min 0 W/m 16,1 km/h (3 Bft) 93,62 %
03.12.2020 19:18 4,3 C 3,3 C 4,5 C 94 % 991,6 hPa 0,0 l/m 0 min 2 min 0 W/m 35,4 km/h (5 Bft) 93,62 %
03.12.2020 19:20 4,3 C 3,3 C 4,5 C 94 % 991,7 hPa 0,0 l/m 0 min 2 min 0 W/m 25,7 km/h (4 Bft) 95,74 %
03.12.2020 19:22 4,3 C 3,3 C 4,5 C 94 % 991,6 hPa 0,0 l/m 0 min 2 min 0 W/m 16,1 km/h (3 Bft) 93,62 %
03.12.2020 19:24 4,3 C 3,3 C 4,5 C 94 % 991,6 hPa 0,0 l/m 0 min 2 min 0 W/m 22,5 km/h (4 Bft) 95,74 %
03.12.2020 19:26 4,3 C 3,3 C 4,5 C 94 % 991,6 hPa 0,0 l/m 0 min 2 min 0 W/m 16,1 km/h (3 Bft) 93,48 %
03.12.2020 19:28 4,3 C 3,3 C 4,5 C 94 % 991,5 hPa 0,0 l/m 0 min 2 min 0 W/m 19,3 km/h (3 Bft) 95,74 %
03.12.2020 19:30 4,3 C 3,3 C 4,5 C 94 % 991,5 hPa 0,0 l/m 0 min 2 min 0 W/m 19,3 km/h (3 Bft) 93,62 %
03.12.2020 19:32 4,3 C 3,3 C 4,5 C 94 % 991,5 hPa 0,0 l/m 0 min 2 min 0 W/m 16,1 km/h (3 Bft) 93,62 %
03.12.2020 19:34 4,3 C 3,3 C 4,5 C 94 % 991,5 hPa 0,0 l/m 0 min 0 min 0 W/m 12,9 km/h (3 Bft) 95,74 %
03.12.2020 19:36 4,3 C 3,3 C 4,5 C 94 % 991,3 hPa 0,2 l/m 0 min 2 min 0 W/m 22,5 km/h (4 Bft) 95,74 %
03.12.2020 19:38 4,3 C 3,3 C 4,5 C 94 % 991,3 hPa 0,0 l/m 0 min 2 min 0 W/m 32,2 km/h (5 Bft) 95,65 %
03.12.2020 19:40 4,3 C 3,3 C 4,5 C 94 % 991,3 hPa 0,0 l/m 0 min 2 min 0 W/m 25,7 km/h (4 Bft) 97,87 %
03.12.2020 19:42 4,3 C 3,3 C 4,5 C 94 % 991,3 hPa 0,0 l/m 0 min 2 min 0 W/m 19,3 km/h (3 Bft) 97,87 %
03.12.2020 19:44 4,3 C 3,3 C 4,5 C 94 % 991,3 hPa 0,0 l/m 0 min 2 min 0 W/m 16,1 km/h (3 Bft) 97,87 %
03.12.2020 19:46 4,3 C 3,3 C 4,5 C 94 % 991,2 hPa 0,0 l/m 0 min 2 min 0 W/m 19,3 km/h (3 Bft) 97,87 %
03.12.2020 19:48 4,3 C 3,3 C 4,5 C 94 % 991,2 hPa 0,0 l/m 0 min 2 min 0 W/m 19,3 km/h (3 Bft) 97,87 %
03.12.2020 19:50 4,3 C 3,3 C 4,5 C 94 % 991,2 hPa 0,0 l/m 0 min 2 min 0 W/m 22,5 km/h (4 Bft) 97,83 %
03.12.2020 19:52 4,3 C 3,3 C 4,5 C 94 % 991,2 hPa 0,0 l/m 0 min 2 min 0 W/m 25,7 km/h (4 Bft) 95,74 %
03.12.2020 19:54 4,3 C 3,3 C 4,5 C 94 % 991,1 hPa 0,0 l/m 0 min 2 min 0 W/m 25,7 km/h (4 Bft) 95,74 %
03.12.2020 19:56 4,3 C 3,3 C 4,5 C 94 % 991,1 hPa 0,0 l/m 0 min 2 min 0 W/m 19,3 km/h (3 Bft) 95,74 %
03.12.2020 19:58 4,3 C 2,8 C 4,5 C 94 % 991,0 hPa 0,0 l/m 0 min 2 min 0 W/m 22,5 km/h (4 Bft) 97,87 %
03.12.2020 20:00 4,3 C 2,8 C 4,5 C 94 % 991,0 hPa 0,0 l/m 0 min 2 min 0 W/m 29,0 km/h (5 Bft) 98,15 %
03.12.2020 20:02 4,3 C 2,8 C 4,5 C 94 % 990,9 hPa 0,0 l/m 0 min 2 min 0 W/m 38,6 km/h (5 Bft) 97,37 %
03.12.2020 20:04 4,3 C 2,8 C 4,5 C 94 % 990,8 hPa 0,0 l/m 0 min 2 min 0 W/m 32,2 km/h (5 Bft) 97,92 %
03.12.2020 20:06 4,3 C 2,8 C 4,5 C 94 % 990,8 hPa 0,0 l/m 0 min 2 min 0 W/m 32,2 km/h (5 Bft) 100,00 %
03.12.2020 20:08 4,3 C 2,8 C 4,5 C 94 % 990,7 hPa 0,2 l/m 0 min 2 min 0 W/m 22,5 km/h (4 Bft) 58,82 %
03.12.2020 20:10 4,3 C 2,8 C 4,5 C 94 % 990,7 hPa 0,0 l/m 0 min 2 min 0 W/m 25,7 km/h (4 Bft) 97,67 %
03.12.2020 20:12 4,3 C 2,8 C 4,5 C 94 % 990,7 hPa 0,0 l/m 0 min 2 min 0 W/m 22,5 km/h (4 Bft) 97,87 %
03.12.2020 20:14 4,3 C 2,8 C 4,5 C 94 % 990,7 hPa 0,0 l/m 0 min 2 min 0 W/m 29,0 km/h (5 Bft) 100,00 %
03.12.2020 20:16 4,2 C 2,8 C 4,5 C 94 % 990,6 hPa 0,0 l/m 0 min 2 min 0 W/m 12,9 km/h (3 Bft) 95,83 %
03.12.2020 20:18 4,2 C 3,3 C 4,5 C 94 % 990,6 hPa 0,0 l/m 0 min 2 min 0 W/m 19,3 km/h (3 Bft) 97,87 %
03.12.2020 20:20 4,2 C 3,3 C 4,5 C 94 % 990,6 hPa 0,0 l/m 0 min 2 min 0 W/m 19,3 km/h (3 Bft) 98,15 %
03.12.2020 20:22 4,2 C 3,3 C 4,5 C 94 % 990,5 hPa 0,0 l/m 0 min 2 min 0 W/m 16,1 km/h (3 Bft) 97,37 %
03.12.2020 20:24 4,2 C 3,3 C 4,5 C 94 % 990,5 hPa 0,0 l/m 0 min 0 min 0 W/m 25,7 km/h (4 Bft) 97,87 %
03.12.2020 20:26 4,2 C 3,3 C 4,5 C 94 % 990,5 hPa 0,0 l/m 0 min 0 min 0 W/m 19,3 km/h (3 Bft) 97,92 %
03.12.2020 20:28 4,2 C 3,3 C 4,5 C 94 % 990,5 hPa 0,0 l/m 0 min 0 min 0 W/m 19,3 km/h (3 Bft) 97,87 %
03.12.2020 20:30 4,2 C 3,3 C 4,5 C 94 % 990,4 hPa 0,0 l/m 0 min 0 min 0 W/m 16,1 km/h (3 Bft) 97,87 %
03.12.2020 20:32 4,3 C 3,3 C 4,5 C 94 % 990,3 hPa 0,0 l/m 0 min 0 min 0 W/m 19,3 km/h (3 Bft) 95,74 %
03.12.2020 20:34 4,2 C 3,3 C 4,5 C 94 % 990,3 hPa 0,0 l/m 0 min 0 min 0 W/m 22,5 km/h (4 Bft) 97,87 %
03.12.2020 20:36 4,2 C 3,3 C 4,5 C 94 % 990,2 hPa 0,0 l/m 0 min 0 min 0 W/m 22,5 km/h (4 Bft) 97,83 %
03.12.2020 20:38 4,2 C 3,3 C 4,5 C 94 % 990,2 hPa 0,0 l/m 0 min 0 min 0 W/m 19,3 km/h (3 Bft) 95,74 %
03.12.2020 20:40 4,2 C 3,3 C 4,5 C 94 % 990,2 hPa 0,0 l/m 0 min 0 min 0 W/m 9,7 km/h (2 Bft) 97,87 %
03.12.2020 20:42 4,2 C 3,3 C 4,5 C 94 % 990,2 hPa 0,0 l/m 0 min 0 min 0 W/m 16,1 km/h (3 Bft) 97,87 %
03.12.2020 20:44 4,2 C 3,3 C 4,5 C 94 % 990,0 hPa 0,0 l/m 0 min 0 min 0 W/m 19,3 km/h (3 Bft) 97,87 %
03.12.2020 20:46 4,2 C 3,3 C 4,5 C 94 % 990,1 hPa 0,0 l/m 0 min 0 min 0 W/m 16,1 km/h (3 Bft) 95,74 %
03.12.2020 20:48 4,2 C 3,3 C 4,5 C 94 % 990,1 hPa 0,0 l/m 0 min 0 min 0 W/m 32,2 km/h (5 Bft) 97,83 %
03.12.2020 20:50 4,2 C 3,3 C 4,5 C 94 % 990,0 hPa 0,0 l/m 0 min 0 min 0 W/m 16,1 km/h (3 Bft) 97,87 %
03.12.2020 20:52 4,2 C 3,3 C 4,5 C 94 % 990,0 hPa 0,0 l/m 0 min 0 min 0 W/m 12,9 km/h (3 Bft) 95,74 %
03.12.2020 20:54 4,2 C 3,3 C 4,5 C 94 % 990,0 hPa 0,0 l/m 0 min 0 min 0 W/m 12,9 km/h (3 Bft) 97,87 %
03.12.2020 20:56 4,2 C 3,3 C 4,5 C 94 % 989,9 hPa 0,0 l/m 0 min 0 min 0 W/m 9,7 km/h (2 Bft) 100,00 %
03.12.2020 20:58 4,2 C 3,3 C 4,5 C 94 % 989,8 hPa 0,0 l/m 0 min 0 min 0 W/m 19,3 km/h (3 Bft) 100,00 %
03.12.2020 21:00 4,2 C 3,3 C 4,5 C 94 % 989,8 hPa 0,0 l/m 0 min 0 min 0 W/m 16,1 km/h (3 Bft) 100,00 %
03.12.2020 21:02 4,2 C 3,3 C 4,5 C 94 % 989,8 hPa 0,0 l/m 0 min 0 min 0 W/m 19,3 km/h (3 Bft) 100,00 %
03.12.2020 21:04 4,2 C 3,3 C 4,5 C 94 % 989,7 hPa 0,0 l/m 0 min 0 min 0 W/m 16,1 km/h (3 Bft) 97,87 %
03.12.2020 21:06 4,2 C 3,3 C 4,5 C 94 % 989,7 hPa 0,0 l/m 0 min 0 min 0 W/m 16,1 km/h (3 Bft) 95,74 %
03.12.2020 21:08 4,2 C 3,3 C 4,5 C 94 % 989,6 hPa 0,0 l/m 0 min 0 min 0 W/m 16,1 km/h (3 Bft) 100,00 %
03.12.2020 21:10 4,2 C 3,3 C 4,5 C 94 % 989,6 hPa 0,0 l/m 0 min 0 min 0 W/m 16,1 km/h (3 Bft) 97,83 %
03.12.2020 21:12 4,2 C 3,3 C 4,5 C 94 % 989,6 hPa 0,0 l/m 0 min 0 min 0 W/m 29,0 km/h (5 Bft) 95,74 %
03.12.2020 21:14 4,2 C 3,3 C 4,5 C 94 % 989,6 hPa 0,0 l/m 0 min 0 min 0 W/m 16,1 km/h (3 Bft) 91,49 %
03.12.2020 21:16 4,2 C 3,3 C 4,5 C 94 % 989,5 hPa 0,0 l/m 0 min 0 min 0 W/m 19,3 km/h (3 Bft) 95,74 %
03.12.2020 21:18 4,2 C 3,3 C 4,5 C 93 % 989,5 hPa 0,0 l/m 0 min 0 min 0 W/m 16,1 km/h (3 Bft) 93,62 %
03.12.2020 21:20 4,2 C 3,3 C 4,5 C 93 % 989,4 hPa 0,0 l/m 0 min 0 min 0 W/m 19,3 km/h (3 Bft) 95,74 %
03.12.2020 21:22 4,2 C 3,3 C 4,5 C 93 % 989,4 hPa 0,0 l/m 0 min 0 min 0 W/m 16,1 km/h (3 Bft) 95,65 %
03.12.2020 21:24 4,2 C 3,3 C 4,5 C 93 % 989,4 hPa 0,0 l/m 0 min 0 min 0 W/m 16,1 km/h (3 Bft) 95,74 %
03.12.2020 21:26 4,1 C 3,3 C 4,5 C 93 % 989,3 hPa 0,0 l/m 0 min 0 min 0 W/m 19,3 km/h (3 Bft) 93,62 %
03.12.2020 21:28 4,1 C 3,3 C 4,5 C 93 % 989,3 hPa 0,0 l/m 0 min 0 min 0 W/m 9,7 km/h (2 Bft) 95,74 %
03.12.2020 21:30 4,1 C 2,8 C 4,5 C 93 % 989,2 hPa 0,0 l/m 0 min 0 min 0 W/m 22,5 km/h (4 Bft) 95,74 %
03.12.2020 21:32 4,1 C 2,8 C 4,5 C 93 % 989,2 hPa 0,0 l/m 0 min 0 min 0 W/m 22,5 km/h (4 Bft) 93,62 %
03.12.2020 21:34 4,1 C 2,8 C 4,5 C 93 % 989,1 hPa 0,0 l/m 0 min 0 min 0 W/m 19,3 km/h (3 Bft) 93,48 %
03.12.2020 21:36 4,1 C 2,8 C 4,5 C 93 % 989,0 hPa 0,0 l/m 0 min 0 min 0 W/m 16,1 km/h (3 Bft) 95,74 %
03.12.2020 21:38 4,1 C 2,8 C 4,5 C 93 % 989,0 hPa 0,0 l/m 0 min 0 min 0 W/m 12,9 km/h (3 Bft) 95,74 %
03.12.2020 21:40 4,1 C 3,3 C 4,5 C 93 % 989,0 hPa 0,0 l/m 0 min 0 min 0 W/m 19,3 km/h (3 Bft) 93,62 %
03.12.2020 21:42 4,1 C 3,3 C 4,5 C 93 % 988,9 hPa 0,0 l/m 0 min 0 min 0 W/m 29,0 km/h (5 Bft) 95,74 %
03.12.2020 21:44 4,1 C 3,3 C 4,5 C 93 % 988,9 hPa 0,0 l/m 0 min 0 min 0 W/m 22,5 km/h (4 Bft) 95,65 %
03.12.2020 21:46 4,1 C 3,3 C 4,5 C 93 % 989,0 hPa 0,0 l/m 0 min 0 min 0 W/m 22,5 km/h (4 Bft) 95,74 %
03.12.2020 21:48 4,1 C 3,3 C 4,5 C 93 % 988,9 hPa 0,0 l/m 0 min 0 min 0 W/m 16,1 km/h (3 Bft) 95,74 %
03.12.2020 21:50 4,1 C 3,3 C 4,5 C 93 % 988,9 hPa 0,0 l/m 0 min 0 min 0 W/m 12,9 km/h (3 Bft) 91,49 %
03.12.2020 21:52 4,1 C 3,3 C 4,5 C 93 % 988,9 hPa 0,0 l/m 0 min 0 min 0 W/m 12,9 km/h (3 Bft) 95,74 %
03.12.2020 21:54 4,2 C 3,3 C 4,5 C 92 % 988,9 hPa 0,0 l/m 0 min 0 min 0 W/m 16,1 km/h (3 Bft) 93,62 %
03.12.2020 21:56 4,2 C 3,3 C 4,5 C 92 % 988,8 hPa 0,0 l/m 0 min 0 min 0 W/m 16,1 km/h (3 Bft) 97,87 %
03.12.2020 21:58 4,2 C 3,3 C 4,5 C 93 % 988,8 hPa 0,0 l/m 0 min 0 min 0 W/m 16,1 km/h (3 Bft) 97,83 %
03.12.2020 22:00 4,3 C 3,3 C 4,5 C 92 % 988,7 hPa 0,0 l/m 0 min 0 min 0 W/m 19,3 km/h (3 Bft) 97,87 %
03.12.2020 22:02 4,3 C 3,3 C 4,5 C 92 % 988,6 hPa 0,0 l/m 0 min 0 min 0 W/m 12,9 km/h (3 Bft) 100,00 %
03.12.2020 22:04 4,3 C 3,3 C 4,5 C 92 % 988,6 hPa 0,0 l/m 0 min 0 min 0 W/m 29,0 km/h (5 Bft) 97,87 %
03.12.2020 22:06 4,3 C 3,3 C 4,5 C 92 % 988,6 hPa 0,0 l/m 0 min 0 min 0 W/m 22,5 km/h (4 Bft) 100,00 %
03.12.2020 22:08 4,3 C 3,3 C 4,5 C 92 % 988,6 hPa 0,0 l/m 0 min 0 min 0 W/m 16,1 km/h (3 Bft) 65,96 %
03.12.2020 22:10 4,3 C 3,3 C 4,5 C 92 % 988,6 hPa 0,0 l/m 0 min 0 min 0 W/m 19,3 km/h (3 Bft) 90,48 %
03.12.2020 22:12 4,3 C 3,3 C 4,5 C 92 % 988,6 hPa 0,0 l/m 0 min 0 min 0 W/m 19,3 km/h (3 Bft) 100,00 %
03.12.2020 22:14 4,3 C 3,3 C 4,5 C 92 % 988,7 hPa 0,0 l/m 0 min 0 min 0 W/m 16,1 km/h (3 Bft) 100,00 %
03.12.2020 22:16 4,3 C 3,3 C 4,5 C 92 % 988,7 hPa 0,0 l/m 0 min 0 min 0 W/m 19,3 km/h (3 Bft) 100,00 %
03.12.2020 22:18 4,3 C 3,3 C 4,5 C 92 % 988,7 hPa 0,0 l/m 0 min 0 min 0 W/m 12,9 km/h (3 Bft) 100,00 %
03.12.2020 22:20 4,3 C 3,3 C 4,5 C 92 % 988,6 hPa 0,0 l/m 0 min 0 min 0 W/m 9,7 km/h (2 Bft) 100,00 %
03.12.2020 22:22 4,3 C 3,3 C 4,5 C 92 % 988,6 hPa 0,0 l/m 0 min 0 min 0 W/m 16,1 km/h (3 Bft) 100,00 %
03.12.2020 22:24 4,3 C 3,3 C 4,5 C 91 % 988,5 hPa 0,0 l/m 0 min 0 min 0 W/m 25,7 km/h (4 Bft) 100,00 %
03.12.2020 22:26 4,4 C 3,3 C 4,5 C 91 % 988,5 hPa 0,0 l/m 0 min 2 min 0 W/m 12,9 km/h (3 Bft) 100,00 %
03.12.2020 22:28 4,4 C 3,3 C 4,5 C 91 % 988,4 hPa 0,0 l/m 0 min 2 min 0 W/m 22,5 km/h (4 Bft) 100,00 %
03.12.2020 22:30 4,4 C 3,3 C 4,5 C 91 % 988,3 hPa 0,0 l/m 0 min 2 min 0 W/m 19,3 km/h (3 Bft) 100,00 %
03.12.2020 22:32 4,4 C 3,3 C 4,5 C 91 % 988,4 hPa 0,0 l/m 0 min 2 min 0 W/m 16,1 km/h (3 Bft) 100,00 %
03.12.2020 22:34 4,4 C 3,3 C 4,5 C 91 % 988,3 hPa 0,0 l/m 0 min 0 min 0 W/m 16,1 km/h (3 Bft) 100,00 %
03.12.2020 22:36 4,4 C 3,3 C 4,5 C 91 % 988,2 hPa 0,0 l/m 0 min 0 min 0 W/m 19,3 km/h (3 Bft) 97,87 %
03.12.2020 22:38 4,4 C 3,3 C 4,5 C 91 % 988,2 hPa 0,0 l/m 0 min 0 min 0 W/m 16,1 km/h (3 Bft) 100,00 %
03.12.2020 22:40 4,4 C 3,3 C 4,5 C 91 % 988,1 hPa 0,0 l/m 0 min 0 min 0 W/m 19,3 km/h (3 Bft) 100,00 %
03.12.2020 22:42 4,4 C 3,3 C 4,5 C 91 % 988,1 hPa 0,0 l/m 0 min 0 min 0 W/m 22,5 km/h (4 Bft) 97,87 %
03.12.2020 22:44 4,4 C 3,3 C 4,5 C 91 % 988,0 hPa 0,0 l/m 0 min 0 min 0 W/m 29,0 km/h (5 Bft) 100,00 %
03.12.2020 22:46 4,4 C 3,3 C 4,5 C 91 % 987,9 hPa 0,0 l/m 0 min 0 min 0 W/m 19,3 km/h (3 Bft) 100,00 %
03.12.2020 22:48 4,4 C 3,3 C 4,5 C 91 % 988,0 hPa 0,0 l/m 0 min 0 min 0 W/m 22,5 km/h (4 Bft) 100,00 %
03.12.2020 22:50 4,4 C 3,3 C 4,5 C 91 % 988,0 hPa 0,0 l/m 0 min 0 min 0 W/m 16,1 km/h (3 Bft) 100,00 %
03.12.2020 22:52 4,4 C 3,3 C 4,5 C 91 % 987,9 hPa 0,0 l/m 0 min 0 min 0 W/m 16,1 km/h (3 Bft) 97,87 %
03.12.2020 22:54 4,5 C 3,3 C 4,5 C 91 % 987,9 hPa 0,0 l/m 0 min 0 min 0 W/m 25,7 km/h (4 Bft) 95,65 %
03.12.2020 22:56 4,4 C 3,3 C 4,5 C 90 % 987,9 hPa 0,0 l/m 0 min 0 min 0 W/m 16,1 km/h (3 Bft) 100,00 %
03.12.2020 22:58 4,5 C 3,3 C 4,5 C 90 % 987,9 hPa 0,0 l/m 0 min 0 min 0 W/m 19,3 km/h (3 Bft) 100,00 %
03.12.2020 23:00 4,5 C 3,3 C 4,5 C 90 % 987,8 hPa 0,0 l/m 0 min 0 min 0 W/m 19,3 km/h (3 Bft) 97,87 %
03.12.2020 23:02 4,5 C 3,3 C 4,5 C 90 % 987,8 hPa 0,0 l/m 0 min 0 min 0 W/m 22,5 km/h (4 Bft) 95,74 %
03.12.2020 23:04 4,5 C 3,3 C 4,5 C 90 % 987,8 hPa 0,0 l/m 0 min 0 min 0 W/m 16,1 km/h (3 Bft) 97,87 %
03.12.2020 23:06 4,5 C 3,3 C 4,5 C 90 % 987,9 hPa 0,0 l/m 0 min 0 min 0 W/m 25,7 km/h (4 Bft) 100,00 %
03.12.2020 23:08 4,5 C 3,3 C 4,5 C 90 % 987,8 hPa 0,0 l/m 0 min 0 min 0 W/m 19,3 km/h (3 Bft) 100,00 %
03.12.2020 23:10 4,5 C 3,3 C 4,5 C 90 % 987,8 hPa 0,0 l/m 0 min 2 min 0 W/m 12,9 km/h (3 Bft) 100,00 %
03.12.2020 23:12 4,5 C 3,3 C 4,5 C 90 % 987,7 hPa 0,0 l/m 0 min 2 min 0 W/m 16,1 km/h (3 Bft) 100,00 %
03.12.2020 23:14 4,5 C 3,3 C 4,5 C 90 % 987,6 hPa 0,0 l/m 0 min 2 min 0 W/m 12,9 km/h (3 Bft) 100,00 %
03.12.2020 23:16 4,5 C 3,3 C 4,5 C 90 % 987,6 hPa 0,0 l/m 0 min 2 min 0 W/m 12,9 km/h (3 Bft) 100,00 %
03.12.2020 23:18 4,5 C 3,3 C 4,5 C 90 % 987,6 hPa 0,0 l/m 0 min 2 min 0 W/m 12,9 km/h (3 Bft) 100,00 %
03.12.2020 23:20 4,5 C 3,3 C 4,5 C 90 % 987,5 hPa 0,0 l/m 0 min 2 min 0 W/m 12,9 km/h (3 Bft) 100,00 %
03.12.2020 23:22 4,4 C 3,3 C 4,5 C 90 % 987,5 hPa 0,0 l/m 0 min 2 min 0 W/m 16,1 km/h (3 Bft) 97,87 %
03.12.2020 23:24 4,4 C 3,3 C 4,5 C 90 % 987,3 hPa 0,0 l/m 0 min 2 min 0 W/m 32,2 km/h (5 Bft) 100,00 %
03.12.2020 23:26 4,4 C 3,3 C 4,5 C 90 % 987,3 hPa 0,0 l/m 0 min 2 min 0 W/m 38,6 km/h (5 Bft) 100,00 %
03.12.2020 23:28 4,4 C 3,3 C 4,5 C 90 % 987,3 hPa 0,0 l/m 0 min 2 min 0 W/m 25,7 km/h (4 Bft) 100,00 %
03.12.2020 23:30 4,4 C 3,3 C 4,5 C 90 % 987,2 hPa 0,0 l/m 0 min 2 min 0 W/m 12,9 km/h (3 Bft) 97,83 %
03.12.2020 23:32 4,4 C 3,3 C 4,5 C 90 % 987,3 hPa 0,0 l/m 0 min 2 min 0 W/m 16,1 km/h (3 Bft) 97,87 %
03.12.2020 23:34 4,4 C 3,3 C 4,5 C 90 % 987,2 hPa 0,0 l/m 0 min 2 min 0 W/m 35,4 km/h (5 Bft) 97,87 %
03.12.2020 23:36 4,4 C 2,8 C 4,5 C 90 % 987,1 hPa 0,0 l/m 0 min 2 min 0 W/m 19,3 km/h (3 Bft) 97,87 %
03.12.2020 23:38 4,4 C 3,3 C 4,5 C 91 % 987,0 hPa 0,0 l/m 0 min 2 min 0 W/m 29,0 km/h (5 Bft) 97,87 %
03.12.2020 23:40 4,4 C 3,3 C 4,5 C 91 % 987,0 hPa 0,0 l/m 0 min 0 min 0 W/m 22,5 km/h (4 Bft) 97,87 %
03.12.2020 23:42 4,4 C 3,3 C 4,5 C 91 % 987,1 hPa 0,0 l/m 0 min 0 min 0 W/m 25,7 km/h (4 Bft) 95,65 %
03.12.2020 23:44 4,4 C 3,3 C 4,5 C 91 % 987,0 hPa 0,0 l/m 0 min 0 min 0 W/m 19,3 km/h (3 Bft) 97,87 %
03.12.2020 23:46 4,4 C 3,3 C 4,5 C 91 % 986,9 hPa 0,0 l/m 0 min 0 min 0 W/m 19,3 km/h (3 Bft) 97,87 %
03.12.2020 23:48 4,4 C 3,3 C 4,5 C 91 % 986,9 hPa 0,0 l/m 0 min 0 min 0 W/m 16,1 km/h (3 Bft) 97,87 %
03.12.2020 23:50 4,4 C 3,3 C 4,5 C 91 % 986,8 hPa 0,0 l/m 0 min 0 min 0 W/m 12,9 km/h (3 Bft) 95,74 %
03.12.2020 23:52 4,3 C 3,3 C 4,5 C 91 % 986,8 hPa 0,0 l/m 0 min 0 min 0 W/m 16,1 km/h (3 Bft) 95,74 %
03.12.2020 23:54 4,4 C 3,3 C 4,5 C 91 % 986,7 hPa 0,0 l/m 0 min 0 min 0 W/m 22,5 km/h (4 Bft) 97,83 %
03.12.2020 23:56 4,4 C 3,3 C 4,5 C 90 % 986,7 hPa 0,2 l/m 0 min 0 min 0 W/m 41,8 km/h (6 Bft) 95,74 %
03.12.2020 23:58 4,4 C 3,3 C 4,5 C 90 % 986,6 hPa 0,0 l/m 0 min 0 min 0 W/m 22,5 km/h (4 Bft) 97,87 %
_ Min-Zeit 01:08 00:00 00:00 22:56 23:58 - - - - 00:02 14:56
Minimum _ 3,5 C 2,8 C 4,5 C 90 % 986,6 hPa - - - - 0,0 km/h (0 Bft) 52,38 %
_ Max-Zeit 14:44 14:10 13:12 02:36 00:08 02:20 00:00 02:16 11:42 23:56 00:00
Maximum _ 5,3 C 5,0 C 5,6 C 100 % 1010,8 hPa 0,2 l/m 0 min 2 min 67 W/m 41,8 km/h
SO (6 Bft)
100,00 %
Durchschnitt _ 4,1 C 3,3 C 4,7 C 97 % 999,4 hPa #2,4 l/m #0 min. #7:02 h 32 W/m 14,0 km/h (3 Bft) 96,93 %
© 2020 W. Hausmann